<?xml version="1.0" encoding="UTF-8" standalone="no" ?>
<gpx xmlns="http://www.topografix.com/GPX/1/1" xmlns:xsi="http://www.w3.org/2001/XMLSchema-instance" xsi:schemaLocation="http://www.topografix.com/GPX/1/1 http://www.topografix.com/GPX/1/1/gpx.xsd" version="1.1" creator="VisuGPX - https://www.visugpx.com">
  <metadata>
    <name>Thurins - Signal St André la Côte</name>
  </metadata>
  <wpt lat="45.67862" lon="4.64945">
    <ele>325.6</ele>
    <name><![CDATA[0000013]]></name>
    <type><![CDATA[Point de départ]]></type>
  </wpt>
  <wpt lat="45.67867" lon="4.64945">
    <ele>325.7</ele>
    <name><![CDATA[0000014]]></name>
    <type><![CDATA[Point d'arrivée]]></type>
  </wpt>
  <wpt lat="45.63771" lon="4.59361">
    <ele>927.4</ele>
    <name><![CDATA[Signal St André la Côte]]></name>
    <type><![CDATA[vue]]></type>
  </wpt>
  <trk>
    <name><![CDATA[2020-12-13 09:22:45]]></name>
    <trkseg>
      <trkpt lat="45.67862" lon="4.64945">
        <ele>392.93</ele>
        <time>2020-12-13T08:22:44.299Z</time>
      </trkpt>
      <trkpt lat="45.67862" lon="4.64945">
        <ele>392.93</ele>
        <time>2020-12-13T08:22:44.299Z</time>
      </trkpt>
      <trkpt lat="45.67866" lon="4.64907">
        <ele>398.11</ele>
        <time>2020-12-13T08:23:21.000Z</time>
      </trkpt>
      <trkpt lat="45.67843" lon="4.64872">
        <ele>398.54</ele>
        <time>2020-12-13T08:23:30.135Z</time>
      </trkpt>
      <trkpt lat="45.67823" lon="4.64858">
        <ele>398.89</ele>
        <time>2020-12-13T08:23:34.000Z</time>
      </trkpt>
      <trkpt lat="45.67808" lon="4.64843">
        <ele>399.5</ele>
        <time>2020-12-13T08:23:38.000Z</time>
      </trkpt>
      <trkpt lat="45.67766" lon="4.64663">
        <ele>412.97</ele>
        <time>2020-12-13T08:24:49.513Z</time>
      </trkpt>
      <trkpt lat="45.6774" lon="4.6457">
        <ele>420.22</ele>
        <time>2020-12-13T08:25:20.296Z</time>
      </trkpt>
      <trkpt lat="45.67749" lon="4.64616">
        <ele>396.33</ele>
        <time>2020-12-13T08:25:42.000Z</time>
      </trkpt>
      <trkpt lat="45.67721" lon="4.6451">
        <ele>416.19</ele>
        <time>2020-12-13T08:25:46.000Z</time>
      </trkpt>
      <trkpt lat="45.67713" lon="4.64483">
        <ele>425.62</ele>
        <time>2020-12-13T08:25:55.000Z</time>
      </trkpt>
      <trkpt lat="45.67706" lon="4.64455">
        <ele>427.17</ele>
        <time>2020-12-13T08:26:04.000Z</time>
      </trkpt>
      <trkpt lat="45.67692" lon="4.64433">
        <ele>427.93</ele>
        <time>2020-12-13T08:26:13.000Z</time>
      </trkpt>
      <trkpt lat="45.6768" lon="4.64401">
        <ele>428.75</ele>
        <time>2020-12-13T08:26:22.000Z</time>
      </trkpt>
      <trkpt lat="45.67673" lon="4.64366">
        <ele>429.61</ele>
        <time>2020-12-13T08:26:31.000Z</time>
      </trkpt>
      <trkpt lat="45.67659" lon="4.6433">
        <ele>430.66</ele>
        <time>2020-12-13T08:26:41.000Z</time>
      </trkpt>
      <trkpt lat="45.67639" lon="4.64299">
        <ele>431.55</ele>
        <time>2020-12-13T08:26:51.000Z</time>
      </trkpt>
      <trkpt lat="45.67621" lon="4.64277">
        <ele>432.29</ele>
        <time>2020-12-13T08:27:00.000Z</time>
      </trkpt>
      <trkpt lat="45.67592" lon="4.64269">
        <ele>431.38</ele>
        <time>2020-12-13T08:27:10.000Z</time>
      </trkpt>
      <trkpt lat="45.6757" lon="4.64269">
        <ele>431.7</ele>
        <time>2020-12-13T08:27:19.000Z</time>
      </trkpt>
      <trkpt lat="45.67547" lon="4.64272">
        <ele>432.03</ele>
        <time>2020-12-13T08:27:28.000Z</time>
      </trkpt>
      <trkpt lat="45.67518" lon="4.64267">
        <ele>432.42</ele>
        <time>2020-12-13T08:27:37.000Z</time>
      </trkpt>
      <trkpt lat="45.67492" lon="4.64256">
        <ele>433.08</ele>
        <time>2020-12-13T08:27:46.000Z</time>
      </trkpt>
      <trkpt lat="45.67469" lon="4.64231">
        <ele>433.93</ele>
        <time>2020-12-13T08:27:55.000Z</time>
      </trkpt>
      <trkpt lat="45.67446" lon="4.64209">
        <ele>435.58</ele>
        <time>2020-12-13T08:28:05.000Z</time>
      </trkpt>
      <trkpt lat="45.67429" lon="4.64192">
        <ele>436.95</ele>
        <time>2020-12-13T08:28:13.000Z</time>
      </trkpt>
      <trkpt lat="45.67413" lon="4.64167">
        <ele>438.53</ele>
        <time>2020-12-13T08:28:22.000Z</time>
      </trkpt>
      <trkpt lat="45.67401" lon="4.64136">
        <ele>439.72</ele>
        <time>2020-12-13T08:28:31.000Z</time>
      </trkpt>
      <trkpt lat="45.67407" lon="4.64106">
        <ele>441.98</ele>
        <time>2020-12-13T08:28:41.000Z</time>
      </trkpt>
      <trkpt lat="45.67404" lon="4.64075">
        <ele>445.13</ele>
        <time>2020-12-13T08:28:55.000Z</time>
      </trkpt>
      <trkpt lat="45.674" lon="4.64043">
        <ele>448.81</ele>
        <time>2020-12-13T08:29:13.000Z</time>
      </trkpt>
      <trkpt lat="45.67395" lon="4.64009">
        <ele>451.77</ele>
        <time>2020-12-13T08:29:31.000Z</time>
      </trkpt>
      <trkpt lat="45.67384" lon="4.6398">
        <ele>454.87</ele>
        <time>2020-12-13T08:29:50.000Z</time>
      </trkpt>
      <trkpt lat="45.67372" lon="4.63953">
        <ele>457.33</ele>
        <time>2020-12-13T08:30:07.000Z</time>
      </trkpt>
      <trkpt lat="45.67361" lon="4.63932">
        <ele>458.76</ele>
        <time>2020-12-13T08:30:20.000Z</time>
      </trkpt>
      <trkpt lat="45.67347" lon="4.63909">
        <ele>460.4</ele>
        <time>2020-12-13T08:30:34.000Z</time>
      </trkpt>
      <trkpt lat="45.67334" lon="4.63887">
        <ele>461.69</ele>
        <time>2020-12-13T08:30:47.000Z</time>
      </trkpt>
      <trkpt lat="45.6732" lon="4.63863">
        <ele>462.95</ele>
        <time>2020-12-13T08:31:00.000Z</time>
      </trkpt>
      <trkpt lat="45.67305" lon="4.63835">
        <ele>464.77</ele>
        <time>2020-12-13T08:31:14.000Z</time>
      </trkpt>
      <trkpt lat="45.67302" lon="4.63795">
        <ele>466.24</ele>
        <time>2020-12-13T08:31:28.000Z</time>
      </trkpt>
      <trkpt lat="45.67301" lon="4.63762">
        <ele>467.77</ele>
        <time>2020-12-13T08:31:38.000Z</time>
      </trkpt>
      <trkpt lat="45.67297" lon="4.63736">
        <ele>469.9</ele>
        <time>2020-12-13T08:31:47.000Z</time>
      </trkpt>
      <trkpt lat="45.67293" lon="4.63709">
        <ele>472.5</ele>
        <time>2020-12-13T08:31:56.000Z</time>
      </trkpt>
      <trkpt lat="45.67273" lon="4.63687">
        <ele>477.18</ele>
        <time>2020-12-13T08:32:10.000Z</time>
      </trkpt>
      <trkpt lat="45.67256" lon="4.63666">
        <ele>479.92</ele>
        <time>2020-12-13T08:32:23.000Z</time>
      </trkpt>
      <trkpt lat="45.6724" lon="4.63653">
        <ele>482.92</ele>
        <time>2020-12-13T08:32:37.000Z</time>
      </trkpt>
      <trkpt lat="45.67222" lon="4.63639">
        <ele>486.44</ele>
        <time>2020-12-13T08:32:52.000Z</time>
      </trkpt>
      <trkpt lat="45.67201" lon="4.63626">
        <ele>490.34</ele>
        <time>2020-12-13T08:33:10.000Z</time>
      </trkpt>
      <trkpt lat="45.67184" lon="4.63618">
        <ele>492.46</ele>
        <time>2020-12-13T08:33:22.000Z</time>
      </trkpt>
      <trkpt lat="45.67167" lon="4.63605">
        <ele>494.61</ele>
        <time>2020-12-13T08:33:36.000Z</time>
      </trkpt>
      <trkpt lat="45.67154" lon="4.63584">
        <ele>497.62</ele>
        <time>2020-12-13T08:33:50.000Z</time>
      </trkpt>
      <trkpt lat="45.6714" lon="4.63565">
        <ele>500.6</ele>
        <time>2020-12-13T08:34:03.000Z</time>
      </trkpt>
      <trkpt lat="45.67127" lon="4.63545">
        <ele>502.5</ele>
        <time>2020-12-13T08:34:15.000Z</time>
      </trkpt>
      <trkpt lat="45.67111" lon="4.63516">
        <ele>504.56</ele>
        <time>2020-12-13T08:34:30.000Z</time>
      </trkpt>
      <trkpt lat="45.67098" lon="4.63486">
        <ele>506.73</ele>
        <time>2020-12-13T08:34:44.000Z</time>
      </trkpt>
      <trkpt lat="45.67086" lon="4.63456">
        <ele>508.74</ele>
        <time>2020-12-13T08:34:58.000Z</time>
      </trkpt>
      <trkpt lat="45.67073" lon="4.63428">
        <ele>511.65</ele>
        <time>2020-12-13T08:35:12.000Z</time>
      </trkpt>
      <trkpt lat="45.67065" lon="4.63405">
        <ele>512.93</ele>
        <time>2020-12-13T08:35:22.000Z</time>
      </trkpt>
      <trkpt lat="45.67054" lon="4.63371">
        <ele>514.61</ele>
        <time>2020-12-13T08:35:35.000Z</time>
      </trkpt>
      <trkpt lat="45.67046" lon="4.63344">
        <ele>515.57</ele>
        <time>2020-12-13T08:35:45.000Z</time>
      </trkpt>
      <trkpt lat="45.67039" lon="4.63319">
        <ele>516.44</ele>
        <time>2020-12-13T08:35:54.000Z</time>
      </trkpt>
      <trkpt lat="45.67029" lon="4.63285">
        <ele>518.2</ele>
        <time>2020-12-13T08:36:07.000Z</time>
      </trkpt>
      <trkpt lat="45.6702" lon="4.63261">
        <ele>519.85</ele>
        <time>2020-12-13T08:36:17.000Z</time>
      </trkpt>
      <trkpt lat="45.66998" lon="4.63231">
        <ele>520.27</ele>
        <time>2020-12-13T08:36:30.000Z</time>
      </trkpt>
      <trkpt lat="45.66982" lon="4.63209">
        <ele>520.89</ele>
        <time>2020-12-13T08:36:39.000Z</time>
      </trkpt>
      <trkpt lat="45.66969" lon="4.63186">
        <ele>521.45</ele>
        <time>2020-12-13T08:36:48.000Z</time>
      </trkpt>
      <trkpt lat="45.66955" lon="4.63161">
        <ele>522.5</ele>
        <time>2020-12-13T08:36:57.000Z</time>
      </trkpt>
      <trkpt lat="45.66943" lon="4.63137">
        <ele>523.45</ele>
        <time>2020-12-13T08:37:06.000Z</time>
      </trkpt>
      <trkpt lat="45.6693" lon="4.6311">
        <ele>524.64</ele>
        <time>2020-12-13T08:37:16.000Z</time>
      </trkpt>
      <trkpt lat="45.66921" lon="4.63087">
        <ele>525.81</ele>
        <time>2020-12-13T08:37:25.000Z</time>
      </trkpt>
      <trkpt lat="45.66909" lon="4.63061">
        <ele>527.38</ele>
        <time>2020-12-13T08:37:35.000Z</time>
      </trkpt>
      <trkpt lat="45.66891" lon="4.63036">
        <ele>529.93</ele>
        <time>2020-12-13T08:37:49.000Z</time>
      </trkpt>
      <trkpt lat="45.66882" lon="4.63006">
        <ele>532.02</ele>
        <time>2020-12-13T08:38:02.000Z</time>
      </trkpt>
      <trkpt lat="45.66872" lon="4.62982">
        <ele>534.59</ele>
        <time>2020-12-13T08:38:15.000Z</time>
      </trkpt>
      <trkpt lat="45.6687" lon="4.62953">
        <ele>538.41</ele>
        <time>2020-12-13T08:38:33.000Z</time>
      </trkpt>
      <trkpt lat="45.66853" lon="4.62938">
        <ele>541.79</ele>
        <time>2020-12-13T08:38:59.000Z</time>
      </trkpt>
      <trkpt lat="45.66836" lon="4.62929">
        <ele>545.13</ele>
        <time>2020-12-13T08:39:23.000Z</time>
      </trkpt>
      <trkpt lat="45.66821" lon="4.62913">
        <ele>548.79</ele>
        <time>2020-12-13T08:39:45.000Z</time>
      </trkpt>
      <trkpt lat="45.66802" lon="4.62902">
        <ele>551.22</ele>
        <time>2020-12-13T08:40:09.000Z</time>
      </trkpt>
      <trkpt lat="45.66781" lon="4.62883">
        <ele>555.16</ele>
        <time>2020-12-13T08:40:22.000Z</time>
      </trkpt>
      <trkpt lat="45.66764" lon="4.62861">
        <ele>558.27</ele>
        <time>2020-12-13T08:40:35.000Z</time>
      </trkpt>
      <trkpt lat="45.66751" lon="4.62832">
        <ele>562.14</ele>
        <time>2020-12-13T08:40:49.000Z</time>
      </trkpt>
      <trkpt lat="45.66747" lon="4.62804">
        <ele>564.43</ele>
        <time>2020-12-13T08:41:02.000Z</time>
      </trkpt>
      <trkpt lat="45.66753" lon="4.6277">
        <ele>566.35</ele>
        <time>2020-12-13T08:41:16.000Z</time>
      </trkpt>
      <trkpt lat="45.66753" lon="4.62737">
        <ele>567.82</ele>
        <time>2020-12-13T08:41:29.000Z</time>
      </trkpt>
      <trkpt lat="45.66749" lon="4.62707">
        <ele>570.51</ele>
        <time>2020-12-13T08:41:42.000Z</time>
      </trkpt>
      <trkpt lat="45.66754" lon="4.62681">
        <ele>572.93</ele>
        <time>2020-12-13T08:41:52.000Z</time>
      </trkpt>
      <trkpt lat="45.66762" lon="4.62648">
        <ele>575.38</ele>
        <time>2020-12-13T08:42:05.000Z</time>
      </trkpt>
      <trkpt lat="45.66748" lon="4.62624">
        <ele>578.19</ele>
        <time>2020-12-13T08:42:20.000Z</time>
      </trkpt>
      <trkpt lat="45.66748" lon="4.62592">
        <ele>580.43</ele>
        <time>2020-12-13T08:42:34.000Z</time>
      </trkpt>
      <trkpt lat="45.66748" lon="4.62566">
        <ele>580.98</ele>
        <time>2020-12-13T08:42:44.000Z</time>
      </trkpt>
      <trkpt lat="45.66743" lon="4.6254">
        <ele>580.87</ele>
        <time>2020-12-13T08:42:53.000Z</time>
      </trkpt>
      <trkpt lat="45.66734" lon="4.62509">
        <ele>580.48</ele>
        <time>2020-12-13T08:43:02.000Z</time>
      </trkpt>
      <trkpt lat="45.66729" lon="4.62477">
        <ele>579.85</ele>
        <time>2020-12-13T08:43:11.000Z</time>
      </trkpt>
      <trkpt lat="45.66722" lon="4.62441">
        <ele>579.91</ele>
        <time>2020-12-13T08:43:21.000Z</time>
      </trkpt>
      <trkpt lat="45.66709" lon="4.62407">
        <ele>580.19</ele>
        <time>2020-12-13T08:43:30.000Z</time>
      </trkpt>
      <trkpt lat="45.66693" lon="4.62381">
        <ele>581.27</ele>
        <time>2020-12-13T08:43:40.000Z</time>
      </trkpt>
      <trkpt lat="45.66678" lon="4.6236">
        <ele>583.58</ele>
        <time>2020-12-13T08:43:50.000Z</time>
      </trkpt>
      <trkpt lat="45.66659" lon="4.62349">
        <ele>586.38</ele>
        <time>2020-12-13T08:44:00.000Z</time>
      </trkpt>
      <trkpt lat="45.66639" lon="4.62328">
        <ele>587.68</ele>
        <time>2020-12-13T08:44:09.000Z</time>
      </trkpt>
      <trkpt lat="45.66627" lon="4.62302">
        <ele>588.46</ele>
        <time>2020-12-13T08:44:18.000Z</time>
      </trkpt>
      <trkpt lat="45.66617" lon="4.62273">
        <ele>589.67</ele>
        <time>2020-12-13T08:44:28.000Z</time>
      </trkpt>
      <trkpt lat="45.66604" lon="4.62249">
        <ele>589.86</ele>
        <time>2020-12-13T08:44:37.000Z</time>
      </trkpt>
      <trkpt lat="45.66596" lon="4.62222">
        <ele>590.22</ele>
        <time>2020-12-13T08:44:45.000Z</time>
      </trkpt>
      <trkpt lat="45.66586" lon="4.62194">
        <ele>590.58</ele>
        <time>2020-12-13T08:44:54.000Z</time>
      </trkpt>
      <trkpt lat="45.66576" lon="4.62162">
        <ele>591.17</ele>
        <time>2020-12-13T08:45:04.000Z</time>
      </trkpt>
      <trkpt lat="45.66567" lon="4.62132">
        <ele>591.64</ele>
        <time>2020-12-13T08:45:13.000Z</time>
      </trkpt>
      <trkpt lat="45.66559" lon="4.62097">
        <ele>592.2</ele>
        <time>2020-12-13T08:45:23.000Z</time>
      </trkpt>
      <trkpt lat="45.66552" lon="4.62066">
        <ele>592.11</ele>
        <time>2020-12-13T08:45:32.000Z</time>
      </trkpt>
      <trkpt lat="45.66544" lon="4.62038">
        <ele>591.9</ele>
        <time>2020-12-13T08:45:40.000Z</time>
      </trkpt>
      <trkpt lat="45.66535" lon="4.62007">
        <ele>592.46</ele>
        <time>2020-12-13T08:45:49.000Z</time>
      </trkpt>
      <trkpt lat="45.66528" lon="4.6198">
        <ele>593.08</ele>
        <time>2020-12-13T08:45:57.000Z</time>
      </trkpt>
      <trkpt lat="45.66519" lon="4.61952">
        <ele>594.45</ele>
        <time>2020-12-13T08:46:06.000Z</time>
      </trkpt>
      <trkpt lat="45.66509" lon="4.61918">
        <ele>597.06</ele>
        <time>2020-12-13T08:46:18.000Z</time>
      </trkpt>
      <trkpt lat="45.66501" lon="4.61891">
        <ele>598.02</ele>
        <time>2020-12-13T08:46:27.000Z</time>
      </trkpt>
      <trkpt lat="45.66496" lon="4.61865">
        <ele>599.24</ele>
        <time>2020-12-13T08:46:35.000Z</time>
      </trkpt>
      <trkpt lat="45.66496" lon="4.61835">
        <ele>601.32</ele>
        <time>2020-12-13T08:46:45.000Z</time>
      </trkpt>
      <trkpt lat="45.66492" lon="4.61795">
        <ele>603.64</ele>
        <time>2020-12-13T08:46:59.000Z</time>
      </trkpt>
      <trkpt lat="45.66492" lon="4.61765">
        <ele>604.37</ele>
        <time>2020-12-13T08:47:09.000Z</time>
      </trkpt>
      <trkpt lat="45.66497" lon="4.61738">
        <ele>605</ele>
        <time>2020-12-13T08:47:18.000Z</time>
      </trkpt>
      <trkpt lat="45.66511" lon="4.61721">
        <ele>605.77</ele>
        <time>2020-12-13T08:47:27.000Z</time>
      </trkpt>
      <trkpt lat="45.66532" lon="4.61703">
        <ele>609.1</ele>
        <time>2020-12-13T08:47:41.000Z</time>
      </trkpt>
      <trkpt lat="45.6654" lon="4.61677">
        <ele>611.82</ele>
        <time>2020-12-13T08:47:53.000Z</time>
      </trkpt>
      <trkpt lat="45.66546" lon="4.61644">
        <ele>613.79</ele>
        <time>2020-12-13T08:48:07.000Z</time>
      </trkpt>
      <trkpt lat="45.66548" lon="4.61611">
        <ele>614.82</ele>
        <time>2020-12-13T08:48:20.000Z</time>
      </trkpt>
      <trkpt lat="45.66549" lon="4.6158">
        <ele>614.73</ele>
        <time>2020-12-13T08:48:30.000Z</time>
      </trkpt>
      <trkpt lat="45.66552" lon="4.61536">
        <ele>613.43</ele>
        <time>2020-12-13T08:48:43.000Z</time>
      </trkpt>
      <trkpt lat="45.66554" lon="4.615">
        <ele>611.26</ele>
        <time>2020-12-13T08:48:52.000Z</time>
      </trkpt>
      <trkpt lat="45.66554" lon="4.61465">
        <ele>609.62</ele>
        <time>2020-12-13T08:49:02.000Z</time>
      </trkpt>
      <trkpt lat="45.66553" lon="4.61431">
        <ele>608.33</ele>
        <time>2020-12-13T08:49:10.000Z</time>
      </trkpt>
      <trkpt lat="45.66554" lon="4.61392">
        <ele>607.22</ele>
        <time>2020-12-13T08:49:20.000Z</time>
      </trkpt>
      <trkpt lat="45.66562" lon="4.61362">
        <ele>605.91</ele>
        <time>2020-12-13T08:49:29.000Z</time>
      </trkpt>
      <trkpt lat="45.66567" lon="4.61324">
        <ele>604.57</ele>
        <time>2020-12-13T08:49:39.000Z</time>
      </trkpt>
      <trkpt lat="45.66571" lon="4.61288">
        <ele>602.38</ele>
        <time>2020-12-13T08:49:49.000Z</time>
      </trkpt>
      <trkpt lat="45.66578" lon="4.61252">
        <ele>599.49</ele>
        <time>2020-12-13T08:49:57.000Z</time>
      </trkpt>
      <trkpt lat="45.66583" lon="4.61214">
        <ele>597.45</ele>
        <time>2020-12-13T08:50:06.000Z</time>
      </trkpt>
      <trkpt lat="45.66585" lon="4.61186">
        <ele>595.26</ele>
        <time>2020-12-13T08:50:15.000Z</time>
      </trkpt>
      <trkpt lat="45.66588" lon="4.61152">
        <ele>592.87</ele>
        <time>2020-12-13T08:50:24.000Z</time>
      </trkpt>
      <trkpt lat="45.66592" lon="4.61111">
        <ele>588.93</ele>
        <time>2020-12-13T08:50:33.000Z</time>
      </trkpt>
      <trkpt lat="45.66596" lon="4.61072">
        <ele>585.55</ele>
        <time>2020-12-13T08:50:42.000Z</time>
      </trkpt>
      <trkpt lat="45.66597" lon="4.61033">
        <ele>580.72</ele>
        <time>2020-12-13T08:50:51.000Z</time>
      </trkpt>
      <trkpt lat="45.66603" lon="4.60998">
        <ele>577.48</ele>
        <time>2020-12-13T08:50:59.000Z</time>
      </trkpt>
      <trkpt lat="45.66604" lon="4.60971">
        <ele>574.6</ele>
        <time>2020-12-13T08:51:07.000Z</time>
      </trkpt>
      <trkpt lat="45.66607" lon="4.60944">
        <ele>573.22</ele>
        <time>2020-12-13T08:51:12.000Z</time>
      </trkpt>
      <trkpt lat="45.66607" lon="4.60907">
        <ele>570.48</ele>
        <time>2020-12-13T08:51:21.000Z</time>
      </trkpt>
      <trkpt lat="45.66612" lon="4.60878">
        <ele>567.71</ele>
        <time>2020-12-13T08:51:26.000Z</time>
      </trkpt>
      <trkpt lat="45.66624" lon="4.60839">
        <ele>563.02</ele>
        <time>2020-12-13T08:51:36.000Z</time>
      </trkpt>
      <trkpt lat="45.66616" lon="4.6081">
        <ele>560.95</ele>
        <time>2020-12-13T08:51:41.000Z</time>
      </trkpt>
      <trkpt lat="45.66603" lon="4.60773">
        <ele>558.89</ele>
        <time>2020-12-13T08:51:46.000Z</time>
      </trkpt>
      <trkpt lat="45.66585" lon="4.60751">
        <ele>556.77</ele>
        <time>2020-12-13T08:51:50.000Z</time>
      </trkpt>
      <trkpt lat="45.66561" lon="4.6074">
        <ele>555.04</ele>
        <time>2020-12-13T08:51:54.000Z</time>
      </trkpt>
      <trkpt lat="45.66536" lon="4.60732">
        <ele>553.08</ele>
        <time>2020-12-13T08:51:58.000Z</time>
      </trkpt>
      <trkpt lat="45.66503" lon="4.60733">
        <ele>550.98</ele>
        <time>2020-12-13T08:52:03.000Z</time>
      </trkpt>
      <trkpt lat="45.66475" lon="4.60754">
        <ele>548.87</ele>
        <time>2020-12-13T08:52:08.000Z</time>
      </trkpt>
      <trkpt lat="45.66452" lon="4.60784">
        <ele>546.69</ele>
        <time>2020-12-13T08:52:13.000Z</time>
      </trkpt>
      <trkpt lat="45.66428" lon="4.60767">
        <ele>544.83</ele>
        <time>2020-12-13T08:52:18.000Z</time>
      </trkpt>
      <trkpt lat="45.66415" lon="4.60732">
        <ele>545.6</ele>
        <time>2020-12-13T08:52:28.000Z</time>
      </trkpt>
      <trkpt lat="45.66376" lon="4.60591">
        <ele>552.46</ele>
        <time>2020-12-13T08:53:11.444Z</time>
      </trkpt>
      <trkpt lat="45.6635" lon="4.60573">
        <ele>546.96</ele>
        <time>2020-12-13T08:53:29.547Z</time>
      </trkpt>
      <trkpt lat="45.66329" lon="4.60556">
        <ele>548.19</ele>
        <time>2020-12-13T08:53:36.530Z</time>
      </trkpt>
      <trkpt lat="45.66302" lon="4.60537">
        <ele>548.44</ele>
        <time>2020-12-13T08:53:54.538Z</time>
      </trkpt>
      <trkpt lat="45.66337" lon="4.60458">
        <ele>559.96</ele>
        <time>2020-12-13T08:54:30.000Z</time>
      </trkpt>
      <trkpt lat="45.66421" lon="4.60379">
        <ele>561.15</ele>
        <time>2020-12-13T08:55:07.682Z</time>
      </trkpt>
      <trkpt lat="45.66464" lon="4.6033">
        <ele>562.4</ele>
        <time>2020-12-13T08:55:28.000Z</time>
      </trkpt>
      <trkpt lat="45.66502" lon="4.60261">
        <ele>562.43</ele>
        <time>2020-12-13T08:55:51.000Z</time>
      </trkpt>
      <trkpt lat="45.66577" lon="4.60244">
        <ele>565.21</ele>
        <time>2020-12-13T08:56:20.511Z</time>
      </trkpt>
      <trkpt lat="45.66641" lon="4.60151">
        <ele>571.74</ele>
        <time>2020-12-13T08:57:05.000Z</time>
      </trkpt>
      <trkpt lat="45.66692" lon="4.6008">
        <ele>576.73</ele>
        <time>2020-12-13T08:57:45.000Z</time>
      </trkpt>
      <trkpt lat="45.66652" lon="4.60046">
        <ele>580.09</ele>
        <time>2020-12-13T08:58:13.466Z</time>
      </trkpt>
      <trkpt lat="45.66619" lon="4.60046">
        <ele>584.57</ele>
        <time>2020-12-13T08:59:02.000Z</time>
      </trkpt>
      <trkpt lat="45.66572" lon="4.60073">
        <ele>588.87</ele>
        <time>2020-12-13T08:59:39.710Z</time>
      </trkpt>
      <trkpt lat="45.66566" lon="4.60038">
        <ele>593.25</ele>
        <time>2020-12-13T09:00:10.530Z</time>
      </trkpt>
      <trkpt lat="45.66552" lon="4.60001">
        <ele>595.52</ele>
        <time>2020-12-13T09:00:24.474Z</time>
      </trkpt>
      <trkpt lat="45.66556" lon="4.59974">
        <ele>598.61</ele>
        <time>2020-12-13T09:00:43.612Z</time>
      </trkpt>
      <trkpt lat="45.66549" lon="4.59949">
        <ele>598.3</ele>
        <time>2020-12-13T09:00:57.189Z</time>
      </trkpt>
      <trkpt lat="45.66545" lon="4.59919">
        <ele>603.01</ele>
        <time>2020-12-13T09:01:10.392Z</time>
      </trkpt>
      <trkpt lat="45.6654" lon="4.59889">
        <ele>607.42</ele>
        <time>2020-12-13T09:01:32.432Z</time>
      </trkpt>
      <trkpt lat="45.66538" lon="4.59861">
        <ele>610.85</ele>
        <time>2020-12-13T09:01:49.000Z</time>
      </trkpt>
      <trkpt lat="45.66538" lon="4.59833">
        <ele>612.43</ele>
        <time>2020-12-13T09:02:07.429Z</time>
      </trkpt>
      <trkpt lat="45.6654" lon="4.59799">
        <ele>614.32</ele>
        <time>2020-12-13T09:02:24.000Z</time>
      </trkpt>
      <trkpt lat="45.66538" lon="4.59768">
        <ele>616.95</ele>
        <time>2020-12-13T09:02:41.000Z</time>
      </trkpt>
      <trkpt lat="45.66538" lon="4.59742">
        <ele>617.89</ele>
        <time>2020-12-13T09:02:55.290Z</time>
      </trkpt>
      <trkpt lat="45.66525" lon="4.59692">
        <ele>616.44</ele>
        <time>2020-12-13T09:03:09.585Z</time>
      </trkpt>
      <trkpt lat="45.66505" lon="4.5965">
        <ele>615.94</ele>
        <time>2020-12-13T09:03:23.000Z</time>
      </trkpt>
      <trkpt lat="45.66485" lon="4.59638">
        <ele>607.24</ele>
        <time>2020-12-13T09:03:32.000Z</time>
      </trkpt>
      <trkpt lat="45.66466" lon="4.59631">
        <ele>613.88</ele>
        <time>2020-12-13T09:03:42.000Z</time>
      </trkpt>
      <trkpt lat="45.66449" lon="4.59613">
        <ele>614.37</ele>
        <time>2020-12-13T09:03:51.000Z</time>
      </trkpt>
      <trkpt lat="45.66433" lon="4.59597">
        <ele>599.1</ele>
      </trkpt>
      <trkpt lat="45.6642" lon="4.59573">
        <ele>598.1</ele>
      </trkpt>
      <trkpt lat="45.66406" lon="4.59559">
        <ele>599.6</ele>
      </trkpt>
      <trkpt lat="45.66391" lon="4.59543">
        <ele>601.7</ele>
      </trkpt>
      <trkpt lat="45.66352" lon="4.59494">
        <ele>579.45</ele>
        <time>2020-12-13T09:04:40.000Z</time>
      </trkpt>
      <trkpt lat="45.66343" lon="4.59461">
        <ele>617.36</ele>
        <time>2020-12-13T09:04:53.000Z</time>
      </trkpt>
      <trkpt lat="45.66296" lon="4.594">
        <ele>611.5</ele>
      </trkpt>
      <trkpt lat="45.66276" lon="4.59364">
        <ele>610.3</ele>
      </trkpt>
      <trkpt lat="45.66253" lon="4.59378">
        <ele>619.2</ele>
      </trkpt>
      <trkpt lat="45.66208" lon="4.59362">
        <ele>625.9</ele>
      </trkpt>
      <trkpt lat="45.66175" lon="4.59301">
        <ele>619.3</ele>
      </trkpt>
      <trkpt lat="45.6606" lon="4.59223">
        <ele>613.4</ele>
      </trkpt>
      <trkpt lat="45.65988" lon="4.59192">
        <ele>609.8</ele>
      </trkpt>
      <trkpt lat="45.65932" lon="4.59304">
        <ele>644.43</ele>
        <time>2020-12-13T09:09:57.000Z</time>
      </trkpt>
      <trkpt lat="45.65917" lon="4.59324">
        <ele>643.36</ele>
        <time>2020-12-13T09:10:10.000Z</time>
      </trkpt>
      <trkpt lat="45.65901" lon="4.59348">
        <ele>646.59</ele>
        <time>2020-12-13T09:10:24.000Z</time>
      </trkpt>
      <trkpt lat="45.65883" lon="4.59369">
        <ele>648.09</ele>
        <time>2020-12-13T09:10:38.000Z</time>
      </trkpt>
      <trkpt lat="45.65868" lon="4.59391">
        <ele>650.16</ele>
        <time>2020-12-13T09:10:52.000Z</time>
      </trkpt>
      <trkpt lat="45.65856" lon="4.59412">
        <ele>651.76</ele>
        <time>2020-12-13T09:11:05.000Z</time>
      </trkpt>
      <trkpt lat="45.65839" lon="4.59431">
        <ele>652.71</ele>
        <time>2020-12-13T09:11:18.000Z</time>
      </trkpt>
      <trkpt lat="45.65822" lon="4.59447">
        <ele>654.38</ele>
        <time>2020-12-13T09:11:32.000Z</time>
      </trkpt>
      <trkpt lat="45.65806" lon="4.59462">
        <ele>657.19</ele>
        <time>2020-12-13T09:11:47.000Z</time>
      </trkpt>
      <trkpt lat="45.65795" lon="4.59483">
        <ele>659.84</ele>
        <time>2020-12-13T09:12:01.000Z</time>
      </trkpt>
      <trkpt lat="45.65777" lon="4.59503">
        <ele>662.22</ele>
        <time>2020-12-13T09:12:19.000Z</time>
      </trkpt>
      <trkpt lat="45.65754" lon="4.59515">
        <ele>664.42</ele>
        <time>2020-12-13T09:12:37.000Z</time>
      </trkpt>
      <trkpt lat="45.65735" lon="4.59529">
        <ele>665.79</ele>
        <time>2020-12-13T09:12:51.000Z</time>
      </trkpt>
      <trkpt lat="45.6572" lon="4.59547">
        <ele>667.89</ele>
        <time>2020-12-13T09:13:04.000Z</time>
      </trkpt>
      <trkpt lat="45.65713" lon="4.59576">
        <ele>669.89</ele>
        <time>2020-12-13T09:13:18.000Z</time>
      </trkpt>
      <trkpt lat="45.65704" lon="4.59598">
        <ele>671.72</ele>
        <time>2020-12-13T09:13:31.000Z</time>
      </trkpt>
      <trkpt lat="45.65699" lon="4.59623">
        <ele>671.64</ele>
        <time>2020-12-13T09:13:40.000Z</time>
      </trkpt>
      <trkpt lat="45.6571" lon="4.5967">
        <ele>669.78</ele>
        <time>2020-12-13T09:13:48.000Z</time>
      </trkpt>
      <trkpt lat="45.65721" lon="4.59707">
        <ele>668.18</ele>
        <time>2020-12-13T09:13:53.000Z</time>
      </trkpt>
      <trkpt lat="45.65731" lon="4.5974">
        <ele>666.88</ele>
        <time>2020-12-13T09:13:57.000Z</time>
      </trkpt>
      <trkpt lat="45.65744" lon="4.59788">
        <ele>664.72</ele>
        <time>2020-12-13T09:14:02.000Z</time>
      </trkpt>
      <trkpt lat="45.65755" lon="4.59831">
        <ele>662.79</ele>
        <time>2020-12-13T09:14:06.000Z</time>
      </trkpt>
      <trkpt lat="45.65766" lon="4.59875">
        <ele>660.74</ele>
        <time>2020-12-13T09:14:10.000Z</time>
      </trkpt>
      <trkpt lat="45.65776" lon="4.5993">
        <ele>658.45</ele>
        <time>2020-12-13T09:14:15.000Z</time>
      </trkpt>
      <trkpt lat="45.6579" lon="4.59969">
        <ele>656.64</ele>
        <time>2020-12-13T09:14:19.000Z</time>
      </trkpt>
      <trkpt lat="45.65815" lon="4.60004">
        <ele>654.53</ele>
        <time>2020-12-13T09:14:23.000Z</time>
      </trkpt>
      <trkpt lat="45.6583" lon="4.60066">
        <ele>651.28</ele>
        <time>2020-12-13T09:14:28.000Z</time>
      </trkpt>
      <trkpt lat="45.65833" lon="4.60131">
        <ele>648.87</ele>
        <time>2020-12-13T09:14:33.000Z</time>
      </trkpt>
      <trkpt lat="45.65841" lon="4.60179">
        <ele>646.32</ele>
        <time>2020-12-13T09:14:37.000Z</time>
      </trkpt>
      <trkpt lat="45.65841" lon="4.60213">
        <ele>644.8</ele>
        <time>2020-12-13T09:14:41.000Z</time>
      </trkpt>
      <trkpt lat="45.65828" lon="4.60191">
        <ele>642.35</ele>
        <time>2020-12-13T09:14:58.000Z</time>
      </trkpt>
      <trkpt lat="45.65823" lon="4.60156">
        <ele>642.94</ele>
        <time>2020-12-13T09:15:08.000Z</time>
      </trkpt>
      <trkpt lat="45.65815" lon="4.60128">
        <ele>643.43</ele>
        <time>2020-12-13T09:15:17.000Z</time>
      </trkpt>
      <trkpt lat="45.65798" lon="4.60082">
        <ele>641.02</ele>
        <time>2020-12-13T09:15:27.000Z</time>
      </trkpt>
      <trkpt lat="45.65791" lon="4.60058">
        <ele>640.29</ele>
        <time>2020-12-13T09:15:32.000Z</time>
      </trkpt>
      <trkpt lat="45.65781" lon="4.60026">
        <ele>640.15</ele>
        <time>2020-12-13T09:15:40.000Z</time>
      </trkpt>
      <trkpt lat="45.6577" lon="4.59994">
        <ele>640.58</ele>
        <time>2020-12-13T09:15:50.000Z</time>
      </trkpt>
      <trkpt lat="45.65761" lon="4.59971">
        <ele>641.78</ele>
        <time>2020-12-13T09:15:58.000Z</time>
      </trkpt>
      <trkpt lat="45.65754" lon="4.59943">
        <ele>642.77</ele>
        <time>2020-12-13T09:16:08.000Z</time>
      </trkpt>
      <trkpt lat="45.65756" lon="4.59911">
        <ele>645.49</ele>
        <time>2020-12-13T09:16:22.000Z</time>
      </trkpt>
      <trkpt lat="45.65754" lon="4.59876">
        <ele>648.44</ele>
        <time>2020-12-13T09:16:39.000Z</time>
      </trkpt>
      <trkpt lat="45.65748" lon="4.59849">
        <ele>649.66</ele>
        <time>2020-12-13T09:16:52.000Z</time>
      </trkpt>
      <trkpt lat="45.65739" lon="4.59825">
        <ele>649.94</ele>
        <time>2020-12-13T09:17:02.000Z</time>
      </trkpt>
      <trkpt lat="45.65729" lon="4.59801">
        <ele>649.93</ele>
        <time>2020-12-13T09:17:12.000Z</time>
      </trkpt>
      <trkpt lat="45.65721" lon="4.5977">
        <ele>651.45</ele>
        <time>2020-12-13T09:17:26.000Z</time>
      </trkpt>
      <trkpt lat="45.65715" lon="4.59738">
        <ele>654.32</ele>
        <time>2020-12-13T09:17:40.000Z</time>
      </trkpt>
      <trkpt lat="45.6571" lon="4.59705">
        <ele>657.4</ele>
        <time>2020-12-13T09:17:58.000Z</time>
      </trkpt>
      <trkpt lat="45.65703" lon="4.59676">
        <ele>659.05</ele>
        <time>2020-12-13T09:18:12.000Z</time>
      </trkpt>
      <trkpt lat="45.65713" lon="4.59707">
        <ele>656.54</ele>
        <time>2020-12-13T09:19:33.177Z</time>
      </trkpt>
      <trkpt lat="45.65731" lon="4.59783">
        <ele>647.85</ele>
        <time>2020-12-13T09:19:51.270Z</time>
      </trkpt>
      <trkpt lat="45.65743" lon="4.59839">
        <ele>645.54</ele>
        <time>2020-12-13T09:20:03.403Z</time>
      </trkpt>
      <trkpt lat="45.65759" lon="4.59959">
        <ele>636.13</ele>
        <time>2020-12-13T09:20:29.000Z</time>
      </trkpt>
      <trkpt lat="45.65796" lon="4.60067">
        <ele>633.06</ele>
        <time>2020-12-13T09:20:52.000Z</time>
      </trkpt>
      <trkpt lat="45.65801" lon="4.60097">
        <ele>633.81</ele>
        <time>2020-12-13T09:21:02.000Z</time>
      </trkpt>
      <trkpt lat="45.65829" lon="4.60185">
        <ele>633.51</ele>
        <time>2020-12-13T09:21:24.325Z</time>
      </trkpt>
      <trkpt lat="45.65832" lon="4.60214">
        <ele>606.87</ele>
        <time>2020-12-13T09:21:38.000Z</time>
      </trkpt>
      <trkpt lat="45.65826" lon="4.60241">
        <ele>632.21</ele>
        <time>2020-12-13T09:22:11.000Z</time>
      </trkpt>
      <trkpt lat="45.65793" lon="4.60267">
        <ele>630.58</ele>
        <time>2020-12-13T09:22:20.000Z</time>
      </trkpt>
      <trkpt lat="45.65767" lon="4.60267">
        <ele>626.83</ele>
        <time>2020-12-13T09:22:29.000Z</time>
      </trkpt>
      <trkpt lat="45.6575" lon="4.60278">
        <ele>622.8</ele>
        <time>2020-12-13T09:22:38.389Z</time>
      </trkpt>
      <trkpt lat="45.65732" lon="4.6029">
        <ele>618.95</ele>
        <time>2020-12-13T09:22:46.553Z</time>
      </trkpt>
      <trkpt lat="45.65713" lon="4.60309">
        <ele>614.95</ele>
        <time>2020-12-13T09:22:54.000Z</time>
      </trkpt>
      <trkpt lat="45.65698" lon="4.60337">
        <ele>611.24</ele>
        <time>2020-12-13T09:23:02.000Z</time>
      </trkpt>
      <trkpt lat="45.6568" lon="4.60374">
        <ele>606.64</ele>
        <time>2020-12-13T09:23:11.000Z</time>
      </trkpt>
      <trkpt lat="45.65665" lon="4.60414">
        <ele>603.03</ele>
        <time>2020-12-13T09:23:20.374Z</time>
      </trkpt>
      <trkpt lat="45.65652" lon="4.60447">
        <ele>597.98</ele>
        <time>2020-12-13T09:24:07.971Z</time>
      </trkpt>
      <trkpt lat="45.65639" lon="4.60481">
        <ele>594.14</ele>
        <time>2020-12-13T09:24:16.575Z</time>
      </trkpt>
      <trkpt lat="45.65634" lon="4.60515">
        <ele>591.44</ele>
        <time>2020-12-13T09:24:25.000Z</time>
      </trkpt>
      <trkpt lat="45.65623" lon="4.60547">
        <ele>589.17</ele>
        <time>2020-12-13T09:24:35.468Z</time>
      </trkpt>
      <trkpt lat="45.65611" lon="4.60596">
        <ele>583.06</ele>
        <time>2020-12-13T09:24:47.000Z</time>
      </trkpt>
      <trkpt lat="45.65595" lon="4.60633">
        <ele>580.71</ele>
        <time>2020-12-13T09:24:57.599Z</time>
      </trkpt>
      <trkpt lat="45.65574" lon="4.60649">
        <ele>577.82</ele>
        <time>2020-12-13T09:25:06.000Z</time>
      </trkpt>
      <trkpt lat="45.65542" lon="4.60681">
        <ele>573.22</ele>
        <time>2020-12-13T09:25:21.250Z</time>
      </trkpt>
      <trkpt lat="45.65524" lon="4.60709">
        <ele>570.26</ele>
        <time>2020-12-13T09:25:40.000Z</time>
      </trkpt>
      <trkpt lat="45.65509" lon="4.6073">
        <ele>565.81</ele>
        <time>2020-12-13T09:26:15.000Z</time>
      </trkpt>
      <trkpt lat="45.65508" lon="4.60681">
        <ele>564.5</ele>
        <time>2020-12-13T09:26:19.000Z</time>
      </trkpt>
      <trkpt lat="45.65512" lon="4.60621">
        <ele>563.35</ele>
        <time>2020-12-13T09:26:24.000Z</time>
      </trkpt>
      <trkpt lat="45.65524" lon="4.60584">
        <ele>560.89</ele>
        <time>2020-12-13T09:26:33.000Z</time>
      </trkpt>
      <trkpt lat="45.65499" lon="4.60573">
        <ele>556.63</ele>
        <time>2020-12-13T09:27:18.526Z</time>
      </trkpt>
      <trkpt lat="45.65479" lon="4.6057">
        <ele>551.97</ele>
        <time>2020-12-13T09:27:27.146Z</time>
      </trkpt>
      <trkpt lat="45.65456" lon="4.60579">
        <ele>547.81</ele>
        <time>2020-12-13T09:27:35.000Z</time>
      </trkpt>
      <trkpt lat="45.6543" lon="4.60598">
        <ele>544.12</ele>
        <time>2020-12-13T09:27:44.147Z</time>
      </trkpt>
      <trkpt lat="45.65401" lon="4.606">
        <ele>547.35</ele>
        <time>2020-12-13T09:28:00.424Z</time>
      </trkpt>
      <trkpt lat="45.65382" lon="4.60608">
        <ele>549.31</ele>
        <time>2020-12-13T09:28:13.000Z</time>
      </trkpt>
      <trkpt lat="45.65367" lon="4.60627">
        <ele>553.12</ele>
        <time>2020-12-13T09:28:38.783Z</time>
      </trkpt>
      <trkpt lat="45.6535" lon="4.60649">
        <ele>557.59</ele>
        <time>2020-12-13T09:29:09.000Z</time>
      </trkpt>
      <trkpt lat="45.65332" lon="4.60661">
        <ele>561.85</ele>
        <time>2020-12-13T09:29:34.212Z</time>
      </trkpt>
      <trkpt lat="45.65315" lon="4.60673">
        <ele>565.42</ele>
        <time>2020-12-13T09:30:03.491Z</time>
      </trkpt>
      <trkpt lat="45.65294" lon="4.60678">
        <ele>568.57</ele>
        <time>2020-12-13T09:30:20.625Z</time>
      </trkpt>
      <trkpt lat="45.65274" lon="4.60676">
        <ele>570.25</ele>
        <time>2020-12-13T09:30:33.000Z</time>
      </trkpt>
      <trkpt lat="45.6525" lon="4.60674">
        <ele>572.67</ele>
        <time>2020-12-13T09:30:51.246Z</time>
      </trkpt>
      <trkpt lat="45.6523" lon="4.60671">
        <ele>572.95</ele>
        <time>2020-12-13T09:31:03.000Z</time>
      </trkpt>
      <trkpt lat="45.65169" lon="4.60626">
        <ele>570.25</ele>
        <time>2020-12-13T09:31:27.353Z</time>
      </trkpt>
      <trkpt lat="45.65154" lon="4.6061">
        <ele>575.49</ele>
        <time>2020-12-13T09:31:43.241Z</time>
      </trkpt>
      <trkpt lat="45.65135" lon="4.60581">
        <ele>572.82</ele>
        <time>2020-12-13T09:31:51.626Z</time>
      </trkpt>
      <trkpt lat="45.6512" lon="4.60564">
        <ele>573.25</ele>
        <time>2020-12-13T09:31:59.000Z</time>
      </trkpt>
      <trkpt lat="45.65102" lon="4.60552">
        <ele>576.04</ele>
        <time>2020-12-13T09:32:12.639Z</time>
      </trkpt>
      <trkpt lat="45.65082" lon="4.60544">
        <ele>578.18</ele>
        <time>2020-12-13T09:32:26.038Z</time>
      </trkpt>
      <trkpt lat="45.65063" lon="4.60538">
        <ele>580.07</ele>
        <time>2020-12-13T09:32:38.000Z</time>
      </trkpt>
      <trkpt lat="45.65046" lon="4.60525">
        <ele>582.12</ele>
        <time>2020-12-13T09:32:51.425Z</time>
      </trkpt>
      <trkpt lat="45.6503" lon="4.60501">
        <ele>585.79</ele>
        <time>2020-12-13T09:33:08.379Z</time>
      </trkpt>
      <trkpt lat="45.65016" lon="4.60475">
        <ele>589.4</ele>
        <time>2020-12-13T09:33:25.441Z</time>
      </trkpt>
      <trkpt lat="45.65001" lon="4.60448">
        <ele>589.82</ele>
        <time>2020-12-13T09:33:38.544Z</time>
      </trkpt>
      <trkpt lat="45.64985" lon="4.60422">
        <ele>588.6</ele>
        <time>2020-12-13T09:33:46.872Z</time>
      </trkpt>
      <trkpt lat="45.64969" lon="4.60388">
        <ele>586.46</ele>
        <time>2020-12-13T09:33:55.362Z</time>
      </trkpt>
      <trkpt lat="45.64961" lon="4.6036">
        <ele>588.73</ele>
        <time>2020-12-13T09:34:08.284Z</time>
      </trkpt>
      <trkpt lat="45.64949" lon="4.60332">
        <ele>591.74</ele>
        <time>2020-12-13T09:34:25.448Z</time>
      </trkpt>
      <trkpt lat="45.64933" lon="4.6031">
        <ele>594.58</ele>
        <time>2020-12-13T09:34:42.000Z</time>
      </trkpt>
      <trkpt lat="45.64916" lon="4.60293">
        <ele>595.52</ele>
        <time>2020-12-13T09:34:55.000Z</time>
      </trkpt>
      <trkpt lat="45.64895" lon="4.60281">
        <ele>596.96</ele>
        <time>2020-12-13T09:35:08.000Z</time>
      </trkpt>
      <trkpt lat="45.64881" lon="4.60261">
        <ele>598.72</ele>
        <time>2020-12-13T09:35:21.000Z</time>
      </trkpt>
      <trkpt lat="45.64876" lon="4.60296">
        <ele>601.26</ele>
        <time>2020-12-13T09:35:54.017Z</time>
      </trkpt>
      <trkpt lat="45.64876" lon="4.60335">
        <ele>601.99</ele>
        <time>2020-12-13T09:36:12.000Z</time>
      </trkpt>
      <trkpt lat="45.64895" lon="4.60355">
        <ele>602.5</ele>
        <time>2020-12-13T09:36:28.138Z</time>
      </trkpt>
      <trkpt lat="45.64914" lon="4.60368">
        <ele>603.77</ele>
        <time>2020-12-13T09:36:41.000Z</time>
      </trkpt>
      <trkpt lat="45.6487" lon="4.60295">
        <ele>603.43</ele>
        <time>2020-12-13T09:37:19.000Z</time>
      </trkpt>
      <trkpt lat="45.6486" lon="4.60214">
        <ele>607.93</ele>
        <time>2020-12-13T09:37:48.227Z</time>
      </trkpt>
      <trkpt lat="45.64865" lon="4.60188">
        <ele>611.37</ele>
        <time>2020-12-13T09:38:01.408Z</time>
      </trkpt>
      <trkpt lat="45.64878" lon="4.60143">
        <ele>614.94</ele>
        <time>2020-12-13T09:38:20.000Z</time>
      </trkpt>
      <trkpt lat="45.64896" lon="4.60137">
        <ele>614.93</ele>
        <time>2020-12-13T09:38:55.000Z</time>
      </trkpt>
      <trkpt lat="45.64913" lon="4.60161">
        <ele>615.54</ele>
        <time>2020-12-13T09:39:05.340Z</time>
      </trkpt>
      <trkpt lat="45.64917" lon="4.60193">
        <ele>616.25</ele>
        <time>2020-12-13T09:39:14.178Z</time>
      </trkpt>
      <trkpt lat="45.64923" lon="4.60221">
        <ele>616.81</ele>
        <time>2020-12-13T09:39:22.789Z</time>
      </trkpt>
      <trkpt lat="45.64933" lon="4.60247">
        <ele>617.33</ele>
        <time>2020-12-13T09:39:31.551Z</time>
      </trkpt>
      <trkpt lat="45.64928" lon="4.60212">
        <ele>619.98</ele>
        <time>2020-12-13T09:39:53.298Z</time>
      </trkpt>
      <trkpt lat="45.64929" lon="4.60178">
        <ele>622.1</ele>
        <time>2020-12-13T09:40:05.774Z</time>
      </trkpt>
      <trkpt lat="45.64932" lon="4.60146">
        <ele>625.03</ele>
        <time>2020-12-13T09:40:19.019Z</time>
      </trkpt>
      <trkpt lat="45.64935" lon="4.60121">
        <ele>626.97</ele>
        <time>2020-12-13T09:40:27.536Z</time>
      </trkpt>
      <trkpt lat="45.64941" lon="4.60086">
        <ele>628.34</ele>
        <time>2020-12-13T09:40:39.000Z</time>
      </trkpt>
      <trkpt lat="45.64948" lon="4.60057">
        <ele>629.02</ele>
        <time>2020-12-13T09:40:48.295Z</time>
      </trkpt>
      <trkpt lat="45.64953" lon="4.60029">
        <ele>629.93</ele>
        <time>2020-12-13T09:40:56.855Z</time>
      </trkpt>
      <trkpt lat="45.64959" lon="4.60002">
        <ele>631.07</ele>
        <time>2020-12-13T09:41:06.141Z</time>
      </trkpt>
      <trkpt lat="45.64969" lon="4.59978">
        <ele>632.33</ele>
        <time>2020-12-13T09:41:14.860Z</time>
      </trkpt>
      <trkpt lat="45.64977" lon="4.59955">
        <ele>634.17</ele>
        <time>2020-12-13T09:41:23.000Z</time>
      </trkpt>
      <trkpt lat="45.64985" lon="4.59924">
        <ele>636.82</ele>
        <time>2020-12-13T09:41:36.550Z</time>
      </trkpt>
      <trkpt lat="45.64991" lon="4.59892">
        <ele>639.42</ele>
        <time>2020-12-13T09:41:48.000Z</time>
      </trkpt>
      <trkpt lat="45.65001" lon="4.59862">
        <ele>642.25</ele>
        <time>2020-12-13T09:42:01.000Z</time>
      </trkpt>
      <trkpt lat="45.6502" lon="4.59816">
        <ele>647.05</ele>
        <time>2020-12-13T09:42:21.530Z</time>
      </trkpt>
      <trkpt lat="45.65032" lon="4.59796">
        <ele>650.6</ele>
        <time>2020-12-13T09:42:36.544Z</time>
      </trkpt>
      <trkpt lat="45.65035" lon="4.5977">
        <ele>653.33</ele>
        <time>2020-12-13T09:42:48.389Z</time>
      </trkpt>
      <trkpt lat="45.65035" lon="4.5974">
        <ele>655.28</ele>
        <time>2020-12-13T09:43:01.156Z</time>
      </trkpt>
      <trkpt lat="45.65039" lon="4.59707">
        <ele>658.47</ele>
        <time>2020-12-13T09:43:18.000Z</time>
      </trkpt>
      <trkpt lat="45.65046" lon="4.59677">
        <ele>662.38</ele>
        <time>2020-12-13T09:43:36.000Z</time>
      </trkpt>
      <trkpt lat="45.65054" lon="4.59647">
        <ele>666.17</ele>
        <time>2020-12-13T09:43:54.460Z</time>
      </trkpt>
      <trkpt lat="45.65062" lon="4.59619">
        <ele>670.23</ele>
        <time>2020-12-13T09:44:11.255Z</time>
      </trkpt>
      <trkpt lat="45.65066" lon="4.59588">
        <ele>673.84</ele>
        <time>2020-12-13T09:44:28.000Z</time>
      </trkpt>
      <trkpt lat="45.65075" lon="4.59557">
        <ele>676.79</ele>
        <time>2020-12-13T09:44:45.000Z</time>
      </trkpt>
      <trkpt lat="45.65083" lon="4.59527">
        <ele>680.05</ele>
        <time>2020-12-13T09:45:03.125Z</time>
      </trkpt>
      <trkpt lat="45.6509" lon="4.59501">
        <ele>683.88</ele>
        <time>2020-12-13T09:45:20.135Z</time>
      </trkpt>
      <trkpt lat="45.65101" lon="4.59476">
        <ele>688.32</ele>
        <time>2020-12-13T09:45:37.000Z</time>
      </trkpt>
      <trkpt lat="45.65111" lon="4.59451">
        <ele>692.79</ele>
        <time>2020-12-13T09:45:56.000Z</time>
      </trkpt>
      <trkpt lat="45.65126" lon="4.59427">
        <ele>696.49</ele>
        <time>2020-12-13T09:46:15.108Z</time>
      </trkpt>
      <trkpt lat="45.65142" lon="4.59404">
        <ele>700.27</ele>
        <time>2020-12-13T09:46:32.000Z</time>
      </trkpt>
      <trkpt lat="45.65156" lon="4.59382">
        <ele>704.5</ele>
        <time>2020-12-13T09:46:49.832Z</time>
      </trkpt>
      <trkpt lat="45.65163" lon="4.59358">
        <ele>708.92</ele>
        <time>2020-12-13T09:47:07.438Z</time>
      </trkpt>
      <trkpt lat="45.65175" lon="4.59333">
        <ele>714.12</ele>
        <time>2020-12-13T09:47:24.000Z</time>
      </trkpt>
      <trkpt lat="45.65182" lon="4.59306">
        <ele>718.75</ele>
        <time>2020-12-13T09:48:03.477Z</time>
      </trkpt>
      <trkpt lat="45.65196" lon="4.59286">
        <ele>721.37</ele>
        <time>2020-12-13T09:48:45.327Z</time>
      </trkpt>
      <trkpt lat="45.65209" lon="4.59264">
        <ele>722.09</ele>
        <time>2020-12-13T09:48:57.000Z</time>
      </trkpt>
      <trkpt lat="45.652" lon="4.59234">
        <ele>722.95</ele>
        <time>2020-12-13T09:49:11.000Z</time>
      </trkpt>
      <trkpt lat="45.6518" lon="4.59221">
        <ele>723.92</ele>
        <time>2020-12-13T09:49:26.000Z</time>
      </trkpt>
      <trkpt lat="45.65157" lon="4.59222">
        <ele>724.77</ele>
        <time>2020-12-13T09:49:39.000Z</time>
      </trkpt>
      <trkpt lat="45.65134" lon="4.59225">
        <ele>723.85</ele>
        <time>2020-12-13T09:49:49.280Z</time>
      </trkpt>
      <trkpt lat="45.65083" lon="4.59243">
        <ele>725.03</ele>
        <time>2020-12-13T09:50:12.000Z</time>
      </trkpt>
      <trkpt lat="45.65065" lon="4.59254">
        <ele>727.59</ele>
        <time>2020-12-13T09:50:25.000Z</time>
      </trkpt>
      <trkpt lat="45.65046" lon="4.59256">
        <ele>731.15</ele>
        <time>2020-12-13T09:50:40.000Z</time>
      </trkpt>
      <trkpt lat="45.64993" lon="4.59214">
        <ele>727.01</ele>
        <time>2020-12-13T09:51:00.348Z</time>
      </trkpt>
      <trkpt lat="45.64932" lon="4.59117">
        <ele>723.85</ele>
        <time>2020-12-13T09:51:28.000Z</time>
      </trkpt>
      <trkpt lat="45.6491" lon="4.5912">
        <ele>723.16</ele>
        <time>2020-12-13T09:51:41.990Z</time>
      </trkpt>
      <trkpt lat="45.64869" lon="4.59142">
        <ele>724.6</ele>
        <time>2020-12-13T09:51:58.000Z</time>
      </trkpt>
      <trkpt lat="45.64815" lon="4.59157">
        <ele>729.87</ele>
        <time>2020-12-13T09:52:26.000Z</time>
      </trkpt>
      <trkpt lat="45.64798" lon="4.5918">
        <ele>732.82</ele>
        <time>2020-12-13T09:52:47.000Z</time>
      </trkpt>
      <trkpt lat="45.6479" lon="4.59208">
        <ele>735.8</ele>
        <time>2020-12-13T09:53:00.000Z</time>
      </trkpt>
      <trkpt lat="45.64778" lon="4.59235">
        <ele>739.15</ele>
        <time>2020-12-13T09:53:18.100Z</time>
      </trkpt>
      <trkpt lat="45.64769" lon="4.59258">
        <ele>742.59</ele>
        <time>2020-12-13T09:53:35.340Z</time>
      </trkpt>
      <trkpt lat="45.64749" lon="4.59256">
        <ele>746.28</ele>
        <time>2020-12-13T09:53:53.000Z</time>
      </trkpt>
      <trkpt lat="45.64732" lon="4.5924">
        <ele>749.06</ele>
        <time>2020-12-13T09:54:10.000Z</time>
      </trkpt>
      <trkpt lat="45.64712" lon="4.59227">
        <ele>751.83</ele>
        <time>2020-12-13T09:54:27.883Z</time>
      </trkpt>
      <trkpt lat="45.64696" lon="4.59208">
        <ele>754.77</ele>
        <time>2020-12-13T09:54:45.000Z</time>
      </trkpt>
      <trkpt lat="45.64686" lon="4.59185">
        <ele>757.11</ele>
        <time>2020-12-13T09:55:02.523Z</time>
      </trkpt>
      <trkpt lat="45.64671" lon="4.59166">
        <ele>759.75</ele>
        <time>2020-12-13T09:55:19.000Z</time>
      </trkpt>
      <trkpt lat="45.64658" lon="4.59145">
        <ele>763.68</ele>
        <time>2020-12-13T09:55:36.000Z</time>
      </trkpt>
      <trkpt lat="45.64639" lon="4.59156">
        <ele>766.93</ele>
        <time>2020-12-13T09:55:59.125Z</time>
      </trkpt>
      <trkpt lat="45.64632" lon="4.59187">
        <ele>767.39</ele>
        <time>2020-12-13T09:56:11.000Z</time>
      </trkpt>
      <trkpt lat="45.64633" lon="4.59222">
        <ele>768.35</ele>
        <time>2020-12-13T09:56:24.000Z</time>
      </trkpt>
      <trkpt lat="45.64632" lon="4.59251">
        <ele>769.93</ele>
        <time>2020-12-13T09:56:37.339Z</time>
      </trkpt>
      <trkpt lat="45.64627" lon="4.59281">
        <ele>771.59</ele>
        <time>2020-12-13T09:56:50.000Z</time>
      </trkpt>
      <trkpt lat="45.6462" lon="4.59308">
        <ele>773.63</ele>
        <time>2020-12-13T09:57:03.541Z</time>
      </trkpt>
      <trkpt lat="45.64606" lon="4.59335">
        <ele>776.31</ele>
        <time>2020-12-13T09:57:20.137Z</time>
      </trkpt>
      <trkpt lat="45.6459" lon="4.5935">
        <ele>778.72</ele>
        <time>2020-12-13T09:57:33.198Z</time>
      </trkpt>
      <trkpt lat="45.64572" lon="4.5936">
        <ele>780.66</ele>
        <time>2020-12-13T09:57:45.000Z</time>
      </trkpt>
      <trkpt lat="45.64555" lon="4.59371">
        <ele>783.28</ele>
        <time>2020-12-13T09:57:59.158Z</time>
      </trkpt>
      <trkpt lat="45.64534" lon="4.59373">
        <ele>786.67</ele>
        <time>2020-12-13T09:58:16.020Z</time>
      </trkpt>
      <trkpt lat="45.64512" lon="4.59373">
        <ele>789.72</ele>
        <time>2020-12-13T09:58:32.924Z</time>
      </trkpt>
      <trkpt lat="45.64494" lon="4.59384">
        <ele>790.89</ele>
        <time>2020-12-13T09:58:46.068Z</time>
      </trkpt>
      <trkpt lat="45.64477" lon="4.59401">
        <ele>791.76</ele>
        <time>2020-12-13T09:58:59.182Z</time>
      </trkpt>
      <trkpt lat="45.64462" lon="4.59421">
        <ele>793.11</ele>
        <time>2020-12-13T09:59:12.487Z</time>
      </trkpt>
      <trkpt lat="45.64445" lon="4.59442">
        <ele>796.44</ele>
        <time>2020-12-13T09:59:29.600Z</time>
      </trkpt>
      <trkpt lat="45.64432" lon="4.59464">
        <ele>800.78</ele>
        <time>2020-12-13T09:59:46.000Z</time>
      </trkpt>
      <trkpt lat="45.64414" lon="4.59485">
        <ele>805.53</ele>
        <time>2020-12-13T10:00:07.489Z</time>
      </trkpt>
      <trkpt lat="45.64402" lon="4.59512">
        <ele>808.69</ele>
        <time>2020-12-13T10:00:24.221Z</time>
      </trkpt>
      <trkpt lat="45.64392" lon="4.59539">
        <ele>812.55</ele>
        <time>2020-12-13T10:00:45.696Z</time>
      </trkpt>
      <trkpt lat="45.64384" lon="4.59562">
        <ele>814.51</ele>
        <time>2020-12-13T10:00:58.422Z</time>
      </trkpt>
      <trkpt lat="45.64377" lon="4.59589">
        <ele>816.99</ele>
        <time>2020-12-13T10:01:11.543Z</time>
      </trkpt>
      <trkpt lat="45.64368" lon="4.59621">
        <ele>819.76</ele>
        <time>2020-12-13T10:01:28.159Z</time>
      </trkpt>
      <trkpt lat="45.64358" lon="4.59647">
        <ele>822.25</ele>
        <time>2020-12-13T10:01:41.000Z</time>
      </trkpt>
      <trkpt lat="45.64354" lon="4.59677">
        <ele>824.23</ele>
        <time>2020-12-13T10:01:54.646Z</time>
      </trkpt>
      <trkpt lat="45.64336" lon="4.5969">
        <ele>825.88</ele>
        <time>2020-12-13T10:02:08.422Z</time>
      </trkpt>
      <trkpt lat="45.64319" lon="4.59699">
        <ele>828.06</ele>
        <time>2020-12-13T10:02:21.004Z</time>
      </trkpt>
      <trkpt lat="45.64295" lon="4.59713">
        <ele>830.19</ele>
        <time>2020-12-13T10:02:38.019Z</time>
      </trkpt>
      <trkpt lat="45.64276" lon="4.59726">
        <ele>830.27</ele>
        <time>2020-12-13T10:02:50.885Z</time>
      </trkpt>
      <trkpt lat="45.6422" lon="4.59727">
        <ele>827.64</ele>
        <time>2020-12-13T10:03:12.585Z</time>
      </trkpt>
      <trkpt lat="45.64182" lon="4.59729">
        <ele>822.98</ele>
        <time>2020-12-13T10:03:26.565Z</time>
      </trkpt>
      <trkpt lat="45.64158" lon="4.59734">
        <ele>823.74</ele>
        <time>2020-12-13T10:03:39.370Z</time>
      </trkpt>
      <trkpt lat="45.64132" lon="4.5973">
        <ele>825.17</ele>
        <time>2020-12-13T10:03:47.000Z</time>
      </trkpt>
      <trkpt lat="45.64111" lon="4.59728">
        <ele>827.13</ele>
        <time>2020-12-13T10:03:59.867Z</time>
      </trkpt>
      <trkpt lat="45.64089" lon="4.59723">
        <ele>830.32</ele>
        <time>2020-12-13T10:04:16.000Z</time>
      </trkpt>
      <trkpt lat="45.64064" lon="4.5972">
        <ele>833.15</ele>
        <time>2020-12-13T10:04:34.129Z</time>
      </trkpt>
      <trkpt lat="45.64041" lon="4.59726">
        <ele>834.71</ele>
        <time>2020-12-13T10:04:47.307Z</time>
      </trkpt>
      <trkpt lat="45.64023" lon="4.59727">
        <ele>836.71</ele>
        <time>2020-12-13T10:04:55.000Z</time>
      </trkpt>
      <trkpt lat="45.63871" lon="4.5971">
        <ele>834.97</ele>
        <time>2020-12-13T10:05:50.000Z</time>
      </trkpt>
      <trkpt lat="45.63798" lon="4.59693">
        <ele>837.23</ele>
        <time>2020-12-13T10:06:20.594Z</time>
      </trkpt>
      <trkpt lat="45.63778" lon="4.59684">
        <ele>839.97</ele>
        <time>2020-12-13T10:06:34.000Z</time>
      </trkpt>
      <trkpt lat="45.63753" lon="4.59683">
        <ele>842.33</ele>
        <time>2020-12-13T10:06:47.654Z</time>
      </trkpt>
      <trkpt lat="45.63733" lon="4.59678">
        <ele>845.57</ele>
        <time>2020-12-13T10:07:01.463Z</time>
      </trkpt>
      <trkpt lat="45.63713" lon="4.59676">
        <ele>847.86</ele>
        <time>2020-12-13T10:07:15.337Z</time>
      </trkpt>
      <trkpt lat="45.63689" lon="4.59672">
        <ele>849.71</ele>
        <time>2020-12-13T10:07:31.000Z</time>
      </trkpt>
      <trkpt lat="45.63625" lon="4.59695">
        <ele>851.39</ele>
        <time>2020-12-13T10:08:02.646Z</time>
      </trkpt>
      <trkpt lat="45.63593" lon="4.59689">
        <ele>855.25</ele>
        <time>2020-12-13T10:08:21.129Z</time>
      </trkpt>
      <trkpt lat="45.63565" lon="4.59639">
        <ele>858.88</ele>
        <time>2020-12-13T10:08:46.000Z</time>
      </trkpt>
      <trkpt lat="45.63526" lon="4.59569">
        <ele>856.94</ele>
        <time>2020-12-13T10:09:08.000Z</time>
      </trkpt>
      <trkpt lat="45.63521" lon="4.59537">
        <ele>855.97</ele>
        <time>2020-12-13T10:09:12.000Z</time>
      </trkpt>
      <trkpt lat="45.63516" lon="4.59495">
        <ele>854.38</ele>
        <time>2020-12-13T10:09:17.000Z</time>
      </trkpt>
      <trkpt lat="45.63508" lon="4.59466">
        <ele>853.03</ele>
        <time>2020-12-13T10:09:22.000Z</time>
      </trkpt>
      <trkpt lat="45.63507" lon="4.59435">
        <ele>852.79</ele>
        <time>2020-12-13T10:09:31.530Z</time>
      </trkpt>
      <trkpt lat="45.63513" lon="4.59409">
        <ele>854.14</ele>
        <time>2020-12-13T10:09:40.000Z</time>
      </trkpt>
      <trkpt lat="45.63525" lon="4.59387">
        <ele>858.23</ele>
        <time>2020-12-13T10:10:25.456Z</time>
      </trkpt>
      <trkpt lat="45.63535" lon="4.59362">
        <ele>862.21</ele>
        <time>2020-12-13T10:10:41.000Z</time>
      </trkpt>
      <trkpt lat="45.63543" lon="4.59338">
        <ele>865.89</ele>
        <time>2020-12-13T10:10:59.030Z</time>
      </trkpt>
      <trkpt lat="45.63553" lon="4.59311">
        <ele>869.77</ele>
        <time>2020-12-13T10:11:15.000Z</time>
      </trkpt>
      <trkpt lat="45.63562" lon="4.59284">
        <ele>873.7</ele>
        <time>2020-12-13T10:11:32.613Z</time>
      </trkpt>
      <trkpt lat="45.63573" lon="4.59261">
        <ele>876.82</ele>
        <time>2020-12-13T10:11:49.000Z</time>
      </trkpt>
      <trkpt lat="45.63589" lon="4.59246">
        <ele>878.8</ele>
        <time>2020-12-13T10:12:02.000Z</time>
      </trkpt>
      <trkpt lat="45.63609" lon="4.59223">
        <ele>880.49</ele>
        <time>2020-12-13T10:12:20.390Z</time>
      </trkpt>
      <trkpt lat="45.63624" lon="4.59204">
        <ele>881.42</ele>
        <time>2020-12-13T10:12:33.456Z</time>
      </trkpt>
      <trkpt lat="45.6364" lon="4.5918">
        <ele>882.9</ele>
        <time>2020-12-13T10:12:46.302Z</time>
      </trkpt>
      <trkpt lat="45.63659" lon="4.59181">
        <ele>886.02</ele>
        <time>2020-12-13T10:13:03.016Z</time>
      </trkpt>
      <trkpt lat="45.63672" lon="4.59208">
        <ele>891.92</ele>
        <time>2020-12-13T10:13:20.615Z</time>
      </trkpt>
      <trkpt lat="45.63681" lon="4.59233">
        <ele>895.44</ele>
        <time>2020-12-13T10:13:33.799Z</time>
      </trkpt>
      <trkpt lat="45.63685" lon="4.59265">
        <ele>900.26</ele>
        <time>2020-12-13T10:13:51.000Z</time>
      </trkpt>
      <trkpt lat="45.63694" lon="4.59288">
        <ele>905.24</ele>
        <time>2020-12-13T10:14:09.690Z</time>
      </trkpt>
      <trkpt lat="45.63707" lon="4.59311">
        <ele>909.83</ele>
        <time>2020-12-13T10:14:48.000Z</time>
      </trkpt>
      <trkpt lat="45.63718" lon="4.59336">
        <ele>914.64</ele>
        <time>2020-12-13T10:15:05.550Z</time>
      </trkpt>
      <trkpt lat="45.63732" lon="4.59358">
        <ele>917.99</ele>
        <time>2020-12-13T10:15:22.620Z</time>
      </trkpt>
      <trkpt lat="45.63749" lon="4.59379">
        <ele>921.8</ele>
        <time>2020-12-13T10:15:39.352Z</time>
      </trkpt>
      <trkpt lat="45.63743" lon="4.59405">
        <ele>923.62</ele>
        <time>2020-12-13T10:16:47.854Z</time>
      </trkpt>
      <trkpt lat="45.63759" lon="4.59389">
        <ele>922.16</ele>
        <time>2020-12-13T10:22:53.000Z</time>
      </trkpt>
      <trkpt lat="45.63775" lon="4.59414">
        <ele>921.74</ele>
        <time>2020-12-13T10:23:15.000Z</time>
      </trkpt>
      <trkpt lat="45.63791" lon="4.59439">
        <ele>919.87</ele>
        <time>2020-12-13T10:23:24.000Z</time>
      </trkpt>
      <trkpt lat="45.63811" lon="4.59456">
        <ele>916.51</ele>
        <time>2020-12-13T10:23:38.000Z</time>
      </trkpt>
      <trkpt lat="45.6383" lon="4.59459">
        <ele>913.37</ele>
        <time>2020-12-13T10:23:46.000Z</time>
      </trkpt>
      <trkpt lat="45.63849" lon="4.59462">
        <ele>912.39</ele>
        <time>2020-12-13T10:23:51.000Z</time>
      </trkpt>
      <trkpt lat="45.63876" lon="4.5946">
        <ele>913.52</ele>
        <time>2020-12-13T10:23:59.000Z</time>
      </trkpt>
      <trkpt lat="45.63896" lon="4.59442">
        <ele>915.44</ele>
        <time>2020-12-13T10:24:08.000Z</time>
      </trkpt>
      <trkpt lat="45.63913" lon="4.59431">
        <ele>917.38</ele>
        <time>2020-12-13T10:24:30.000Z</time>
      </trkpt>
      <trkpt lat="45.63968" lon="4.59273">
        <ele>903.86</ele>
        <time>2020-12-13T10:25:34.000Z</time>
      </trkpt>
      <trkpt lat="45.63962" lon="4.59245">
        <ele>902.5</ele>
        <time>2020-12-13T10:25:38.000Z</time>
      </trkpt>
      <trkpt lat="45.6395" lon="4.59212">
        <ele>901.86</ele>
        <time>2020-12-13T10:25:43.000Z</time>
      </trkpt>
      <trkpt lat="45.63944" lon="4.59169">
        <ele>900.51</ele>
        <time>2020-12-13T10:25:53.000Z</time>
      </trkpt>
      <trkpt lat="45.63956" lon="4.5915">
        <ele>896.79</ele>
        <time>2020-12-13T10:26:02.000Z</time>
      </trkpt>
      <trkpt lat="45.63979" lon="4.59127">
        <ele>891.64</ele>
        <time>2020-12-13T10:26:12.000Z</time>
      </trkpt>
      <trkpt lat="45.64" lon="4.59088">
        <ele>886.13</ele>
        <time>2020-12-13T10:26:21.000Z</time>
      </trkpt>
      <trkpt lat="45.64009" lon="4.59062">
        <ele>883.72</ele>
        <time>2020-12-13T10:26:26.000Z</time>
      </trkpt>
      <trkpt lat="45.64031" lon="4.59029">
        <ele>879.78</ele>
        <time>2020-12-13T10:26:34.000Z</time>
      </trkpt>
      <trkpt lat="45.64037" lon="4.59004">
        <ele>878.13</ele>
        <time>2020-12-13T10:26:39.000Z</time>
      </trkpt>
      <trkpt lat="45.64041" lon="4.5895">
        <ele>875.66</ele>
        <time>2020-12-13T10:26:48.000Z</time>
      </trkpt>
      <trkpt lat="45.64044" lon="4.58904">
        <ele>873.84</ele>
        <time>2020-12-13T10:26:56.000Z</time>
      </trkpt>
      <trkpt lat="45.64052" lon="4.58878">
        <ele>872.24</ele>
        <time>2020-12-13T10:27:01.000Z</time>
      </trkpt>
      <trkpt lat="45.64064" lon="4.58842">
        <ele>869.15</ele>
        <time>2020-12-13T10:27:09.000Z</time>
      </trkpt>
      <trkpt lat="45.64074" lon="4.5882">
        <ele>867.26</ele>
        <time>2020-12-13T10:27:14.000Z</time>
      </trkpt>
      <trkpt lat="45.64096" lon="4.58811">
        <ele>864.04</ele>
        <time>2020-12-13T10:27:27.000Z</time>
      </trkpt>
      <trkpt lat="45.64114" lon="4.58812">
        <ele>861.63</ele>
        <time>2020-12-13T10:27:32.000Z</time>
      </trkpt>
      <trkpt lat="45.64137" lon="4.588">
        <ele>858.8</ele>
        <time>2020-12-13T10:27:37.000Z</time>
      </trkpt>
      <trkpt lat="45.64171" lon="4.58786">
        <ele>854.58</ele>
        <time>2020-12-13T10:27:45.000Z</time>
      </trkpt>
      <trkpt lat="45.64191" lon="4.58779">
        <ele>852.43</ele>
        <time>2020-12-13T10:27:49.000Z</time>
      </trkpt>
      <trkpt lat="45.64218" lon="4.58767">
        <ele>849.25</ele>
        <time>2020-12-13T10:27:57.000Z</time>
      </trkpt>
      <trkpt lat="45.64246" lon="4.5874">
        <ele>844.41</ele>
        <time>2020-12-13T10:28:07.000Z</time>
      </trkpt>
      <trkpt lat="45.6425" lon="4.58697">
        <ele>840.44</ele>
        <time>2020-12-13T10:28:16.000Z</time>
      </trkpt>
      <trkpt lat="45.64286" lon="4.58675">
        <ele>835.26</ele>
        <time>2020-12-13T10:28:25.000Z</time>
      </trkpt>
      <trkpt lat="45.64304" lon="4.58664">
        <ele>832.83</ele>
        <time>2020-12-13T10:28:29.000Z</time>
      </trkpt>
      <trkpt lat="45.64325" lon="4.58651">
        <ele>830.2</ele>
        <time>2020-12-13T10:28:34.000Z</time>
      </trkpt>
      <trkpt lat="45.64343" lon="4.58637">
        <ele>828.08</ele>
        <time>2020-12-13T10:28:39.000Z</time>
      </trkpt>
      <trkpt lat="45.64366" lon="4.58613">
        <ele>825.24</ele>
        <time>2020-12-13T10:28:44.000Z</time>
      </trkpt>
      <trkpt lat="45.64384" lon="4.58563">
        <ele>820.9</ele>
        <time>2020-12-13T10:28:54.000Z</time>
      </trkpt>
      <trkpt lat="45.6439" lon="4.58531">
        <ele>818.23</ele>
        <time>2020-12-13T10:28:58.000Z</time>
      </trkpt>
      <trkpt lat="45.64414" lon="4.585">
        <ele>817.18</ele>
        <time>2020-12-13T10:29:03.000Z</time>
      </trkpt>
      <trkpt lat="45.64439" lon="4.5847">
        <ele>816.07</ele>
        <time>2020-12-13T10:29:08.000Z</time>
      </trkpt>
      <trkpt lat="45.64464" lon="4.58438">
        <ele>814.59</ele>
        <time>2020-12-13T10:29:13.000Z</time>
      </trkpt>
      <trkpt lat="45.6449" lon="4.58406">
        <ele>813.39</ele>
        <time>2020-12-13T10:29:18.000Z</time>
      </trkpt>
      <trkpt lat="45.64512" lon="4.58382">
        <ele>812.52</ele>
        <time>2020-12-13T10:29:22.000Z</time>
      </trkpt>
      <trkpt lat="45.64534" lon="4.5836">
        <ele>811.8</ele>
        <time>2020-12-13T10:29:26.000Z</time>
      </trkpt>
      <trkpt lat="45.64562" lon="4.58334">
        <ele>810.8</ele>
        <time>2020-12-13T10:29:31.000Z</time>
      </trkpt>
      <trkpt lat="45.64589" lon="4.58308">
        <ele>809.73</ele>
        <time>2020-12-13T10:29:36.000Z</time>
      </trkpt>
      <trkpt lat="45.64609" lon="4.58288">
        <ele>809.18</ele>
        <time>2020-12-13T10:29:40.000Z</time>
      </trkpt>
      <trkpt lat="45.64628" lon="4.58271">
        <ele>808.98</ele>
        <time>2020-12-13T10:29:44.000Z</time>
      </trkpt>
      <trkpt lat="45.64654" lon="4.58257">
        <ele>808.78</ele>
        <time>2020-12-13T10:29:49.000Z</time>
      </trkpt>
      <trkpt lat="45.64673" lon="4.58244">
        <ele>808.59</ele>
        <time>2020-12-13T10:29:53.000Z</time>
      </trkpt>
      <trkpt lat="45.64696" lon="4.58231">
        <ele>808.03</ele>
        <time>2020-12-13T10:29:58.000Z</time>
      </trkpt>
      <trkpt lat="45.64714" lon="4.58219">
        <ele>807.69</ele>
        <time>2020-12-13T10:30:02.000Z</time>
      </trkpt>
      <trkpt lat="45.64736" lon="4.58204">
        <ele>807.56</ele>
        <time>2020-12-13T10:30:07.000Z</time>
      </trkpt>
      <trkpt lat="45.64753" lon="4.58189">
        <ele>807.29</ele>
        <time>2020-12-13T10:30:11.000Z</time>
      </trkpt>
      <trkpt lat="45.6477" lon="4.58166">
        <ele>807.02</ele>
        <time>2020-12-13T10:30:16.000Z</time>
      </trkpt>
      <trkpt lat="45.64783" lon="4.58146">
        <ele>806.92</ele>
        <time>2020-12-13T10:30:20.000Z</time>
      </trkpt>
      <trkpt lat="45.64797" lon="4.58122">
        <ele>807.02</ele>
        <time>2020-12-13T10:30:25.000Z</time>
      </trkpt>
      <trkpt lat="45.64822" lon="4.58082">
        <ele>806.61</ele>
        <time>2020-12-13T10:30:34.000Z</time>
      </trkpt>
      <trkpt lat="45.64839" lon="4.58098">
        <ele>806.62</ele>
        <time>2020-12-13T10:30:47.000Z</time>
      </trkpt>
      <trkpt lat="45.64844" lon="4.58123">
        <ele>806.19</ele>
        <time>2020-12-13T10:30:51.000Z</time>
      </trkpt>
      <trkpt lat="45.64853" lon="4.5816">
        <ele>805.24</ele>
        <time>2020-12-13T10:30:56.000Z</time>
      </trkpt>
      <trkpt lat="45.64863" lon="4.5819">
        <ele>804.14</ele>
        <time>2020-12-13T10:31:00.000Z</time>
      </trkpt>
      <trkpt lat="45.64874" lon="4.58223">
        <ele>803.21</ele>
        <time>2020-12-13T10:31:04.000Z</time>
      </trkpt>
      <trkpt lat="45.64881" lon="4.58257">
        <ele>802.62</ele>
        <time>2020-12-13T10:31:08.000Z</time>
      </trkpt>
      <trkpt lat="45.64892" lon="4.58296">
        <ele>802.24</ele>
        <time>2020-12-13T10:31:13.000Z</time>
      </trkpt>
      <trkpt lat="45.64906" lon="4.58329">
        <ele>801.79</ele>
        <time>2020-12-13T10:31:18.000Z</time>
      </trkpt>
      <trkpt lat="45.64918" lon="4.58352">
        <ele>801.29</ele>
        <time>2020-12-13T10:31:22.000Z</time>
      </trkpt>
      <trkpt lat="45.64931" lon="4.58379">
        <ele>800.76</ele>
        <time>2020-12-13T10:31:26.000Z</time>
      </trkpt>
      <trkpt lat="45.64947" lon="4.58416">
        <ele>799.53</ele>
        <time>2020-12-13T10:31:31.000Z</time>
      </trkpt>
      <trkpt lat="45.64962" lon="4.58458">
        <ele>797.14</ele>
        <time>2020-12-13T10:31:36.000Z</time>
      </trkpt>
      <trkpt lat="45.64969" lon="4.58498">
        <ele>794.39</ele>
        <time>2020-12-13T10:31:40.000Z</time>
      </trkpt>
      <trkpt lat="45.6498" lon="4.58557">
        <ele>789.06</ele>
        <time>2020-12-13T10:31:45.000Z</time>
      </trkpt>
      <trkpt lat="45.64989" lon="4.58613">
        <ele>783.93</ele>
        <time>2020-12-13T10:31:49.000Z</time>
      </trkpt>
      <trkpt lat="45.65" lon="4.58668">
        <ele>779.52</ele>
        <time>2020-12-13T10:31:54.000Z</time>
      </trkpt>
      <trkpt lat="45.6501" lon="4.58705">
        <ele>776.57</ele>
        <time>2020-12-13T10:31:58.000Z</time>
      </trkpt>
      <trkpt lat="45.65018" lon="4.58762">
        <ele>773.27</ele>
        <time>2020-12-13T10:32:03.000Z</time>
      </trkpt>
      <trkpt lat="45.65028" lon="4.58814">
        <ele>769.58</ele>
        <time>2020-12-13T10:32:08.000Z</time>
      </trkpt>
      <trkpt lat="45.65051" lon="4.58846">
        <ele>766.06</ele>
        <time>2020-12-13T10:32:12.000Z</time>
      </trkpt>
      <trkpt lat="45.65081" lon="4.58885">
        <ele>761.73</ele>
        <time>2020-12-13T10:32:17.000Z</time>
      </trkpt>
      <trkpt lat="45.65106" lon="4.58914">
        <ele>757.24</ele>
        <time>2020-12-13T10:32:21.000Z</time>
      </trkpt>
      <trkpt lat="45.65132" lon="4.58946">
        <ele>751.88</ele>
        <time>2020-12-13T10:32:25.000Z</time>
      </trkpt>
      <trkpt lat="45.65159" lon="4.58985">
        <ele>745.76</ele>
        <time>2020-12-13T10:32:29.000Z</time>
      </trkpt>
      <trkpt lat="45.65197" lon="4.59018">
        <ele>739.62</ele>
        <time>2020-12-13T10:32:34.000Z</time>
      </trkpt>
      <trkpt lat="45.65224" lon="4.59041">
        <ele>734.74</ele>
        <time>2020-12-13T10:32:38.000Z</time>
      </trkpt>
      <trkpt lat="45.65244" lon="4.59058">
        <ele>730.1</ele>
        <time>2020-12-13T10:32:43.000Z</time>
      </trkpt>
      <trkpt lat="45.6524" lon="4.59106">
        <ele>725.44</ele>
        <time>2020-12-13T10:32:56.000Z</time>
      </trkpt>
      <trkpt lat="45.6523" lon="4.59141">
        <ele>724.2</ele>
        <time>2020-12-13T10:33:01.000Z</time>
      </trkpt>
      <trkpt lat="45.65214" lon="4.59169">
        <ele>722.41</ele>
        <time>2020-12-13T10:33:06.000Z</time>
      </trkpt>
      <trkpt lat="45.65198" lon="4.59193">
        <ele>720.73</ele>
        <time>2020-12-13T10:33:10.000Z</time>
      </trkpt>
      <trkpt lat="45.652" lon="4.59232">
        <ele>718.74</ele>
        <time>2020-12-13T10:33:15.000Z</time>
      </trkpt>
      <trkpt lat="45.65212" lon="4.59256">
        <ele>717.01</ele>
        <time>2020-12-13T10:33:20.000Z</time>
      </trkpt>
      <trkpt lat="45.6524" lon="4.59258">
        <ele>714.65</ele>
        <time>2020-12-13T10:33:28.000Z</time>
      </trkpt>
      <trkpt lat="45.65263" lon="4.59257">
        <ele>713.23</ele>
        <time>2020-12-13T10:33:33.000Z</time>
      </trkpt>
      <trkpt lat="45.65293" lon="4.59257">
        <ele>710.77</ele>
        <time>2020-12-13T10:33:41.000Z</time>
      </trkpt>
      <trkpt lat="45.65317" lon="4.59265">
        <ele>707.59</ele>
        <time>2020-12-13T10:33:49.000Z</time>
      </trkpt>
      <trkpt lat="45.65337" lon="4.59273">
        <ele>705.95</ele>
        <time>2020-12-13T10:33:54.000Z</time>
      </trkpt>
      <trkpt lat="45.65362" lon="4.59298">
        <ele>703.76</ele>
        <time>2020-12-13T10:34:02.000Z</time>
      </trkpt>
      <trkpt lat="45.65378" lon="4.59314">
        <ele>702.64</ele>
        <time>2020-12-13T10:34:07.000Z</time>
      </trkpt>
      <trkpt lat="45.65397" lon="4.59336">
        <ele>700.36</ele>
        <time>2020-12-13T10:34:16.000Z</time>
      </trkpt>
      <trkpt lat="45.65412" lon="4.5936">
        <ele>698.01</ele>
        <time>2020-12-13T10:34:24.000Z</time>
      </trkpt>
      <trkpt lat="45.65433" lon="4.59396">
        <ele>695.54</ele>
        <time>2020-12-13T10:34:33.000Z</time>
      </trkpt>
      <trkpt lat="45.65458" lon="4.59435">
        <ele>692.37</ele>
        <time>2020-12-13T10:34:42.000Z</time>
      </trkpt>
      <trkpt lat="45.65474" lon="4.59468">
        <ele>689.64</ele>
        <time>2020-12-13T10:34:50.000Z</time>
      </trkpt>
      <trkpt lat="45.65486" lon="4.59499">
        <ele>687.29</ele>
        <time>2020-12-13T10:34:58.000Z</time>
      </trkpt>
      <trkpt lat="45.65502" lon="4.59523">
        <ele>684.45</ele>
        <time>2020-12-13T10:35:07.000Z</time>
      </trkpt>
      <trkpt lat="45.65525" lon="4.59552">
        <ele>680.96</ele>
        <time>2020-12-13T10:35:17.000Z</time>
      </trkpt>
      <trkpt lat="45.65546" lon="4.5957">
        <ele>676.48</ele>
        <time>2020-12-13T10:35:30.000Z</time>
      </trkpt>
      <trkpt lat="45.65568" lon="4.59583">
        <ele>673.54</ele>
        <time>2020-12-13T10:35:40.000Z</time>
      </trkpt>
      <trkpt lat="45.65588" lon="4.59597">
        <ele>670.51</ele>
        <time>2020-12-13T10:35:49.000Z</time>
      </trkpt>
      <trkpt lat="45.65602" lon="4.59619">
        <ele>667.88</ele>
        <time>2020-12-13T10:35:58.000Z</time>
      </trkpt>
      <trkpt lat="45.65613" lon="4.59642">
        <ele>664.53</ele>
        <time>2020-12-13T10:36:07.000Z</time>
      </trkpt>
      <trkpt lat="45.65632" lon="4.59641">
        <ele>661.88</ele>
        <time>2020-12-13T10:36:11.000Z</time>
      </trkpt>
      <trkpt lat="45.65659" lon="4.59623">
        <ele>657.39</ele>
        <time>2020-12-13T10:36:16.000Z</time>
      </trkpt>
      <trkpt lat="45.65681" lon="4.59619">
        <ele>653.74</ele>
        <time>2020-12-13T10:36:20.000Z</time>
      </trkpt>
      <trkpt lat="45.65701" lon="4.59629">
        <ele>650.15</ele>
        <time>2020-12-13T10:36:25.000Z</time>
      </trkpt>
      <trkpt lat="45.65704" lon="4.59667">
        <ele>647.02</ele>
        <time>2020-12-13T10:36:33.000Z</time>
      </trkpt>
      <trkpt lat="45.65709" lon="4.59696">
        <ele>644.08</ele>
        <time>2020-12-13T10:36:37.000Z</time>
      </trkpt>
      <trkpt lat="45.65715" lon="4.59723">
        <ele>641.55</ele>
        <time>2020-12-13T10:36:42.000Z</time>
      </trkpt>
      <trkpt lat="45.65719" lon="4.59749">
        <ele>639.22</ele>
        <time>2020-12-13T10:36:47.000Z</time>
      </trkpt>
      <trkpt lat="45.65732" lon="4.59801">
        <ele>634.36</ele>
        <time>2020-12-13T10:36:55.000Z</time>
      </trkpt>
      <trkpt lat="45.65744" lon="4.59829">
        <ele>633.31</ele>
        <time>2020-12-13T10:36:59.000Z</time>
      </trkpt>
      <trkpt lat="45.65755" lon="4.59857">
        <ele>632.41</ele>
        <time>2020-12-13T10:37:04.000Z</time>
      </trkpt>
      <trkpt lat="45.65762" lon="4.5991">
        <ele>629.31</ele>
        <time>2020-12-13T10:37:13.000Z</time>
      </trkpt>
      <trkpt lat="45.65756" lon="4.59938">
        <ele>626.45</ele>
        <time>2020-12-13T10:37:18.000Z</time>
      </trkpt>
      <trkpt lat="45.6576" lon="4.59966">
        <ele>624.3</ele>
        <time>2020-12-13T10:37:22.000Z</time>
      </trkpt>
      <trkpt lat="45.6577" lon="4.5999">
        <ele>622.86</ele>
        <time>2020-12-13T10:37:26.000Z</time>
      </trkpt>
      <trkpt lat="45.65782" lon="4.60019">
        <ele>621.88</ele>
        <time>2020-12-13T10:37:31.000Z</time>
      </trkpt>
      <trkpt lat="45.65795" lon="4.60065">
        <ele>620.91</ele>
        <time>2020-12-13T10:37:40.000Z</time>
      </trkpt>
      <trkpt lat="45.65806" lon="4.60102">
        <ele>621.51</ele>
        <time>2020-12-13T10:37:49.000Z</time>
      </trkpt>
      <trkpt lat="45.65818" lon="4.60135">
        <ele>623.54</ele>
        <time>2020-12-13T10:37:59.000Z</time>
      </trkpt>
      <trkpt lat="45.65826" lon="4.60174">
        <ele>623.03</ele>
        <time>2020-12-13T10:38:08.000Z</time>
      </trkpt>
      <trkpt lat="45.6583" lon="4.602">
        <ele>622.41</ele>
        <time>2020-12-13T10:38:13.000Z</time>
      </trkpt>
      <trkpt lat="45.65832" lon="4.60234">
        <ele>622.52</ele>
        <time>2020-12-13T10:38:21.000Z</time>
      </trkpt>
      <trkpt lat="45.6584" lon="4.60278">
        <ele>621.83</ele>
        <time>2020-12-13T10:38:30.313Z</time>
      </trkpt>
      <trkpt lat="45.65844" lon="4.60307">
        <ele>621.11</ele>
        <time>2020-12-13T10:38:34.000Z</time>
      </trkpt>
      <trkpt lat="45.65849" lon="4.60336">
        <ele>620.36</ele>
        <time>2020-12-13T10:38:38.000Z</time>
      </trkpt>
      <trkpt lat="45.65855" lon="4.60366">
        <ele>619.65</ele>
        <time>2020-12-13T10:38:42.000Z</time>
      </trkpt>
      <trkpt lat="45.65861" lon="4.60401">
        <ele>619.29</ele>
        <time>2020-12-13T10:38:47.000Z</time>
      </trkpt>
      <trkpt lat="45.6587" lon="4.60425">
        <ele>619.2</ele>
        <time>2020-12-13T10:38:51.000Z</time>
      </trkpt>
      <trkpt lat="45.6588" lon="4.60454">
        <ele>619.25</ele>
        <time>2020-12-13T10:38:56.000Z</time>
      </trkpt>
      <trkpt lat="45.65889" lon="4.60478">
        <ele>619.33</ele>
        <time>2020-12-13T10:39:00.000Z</time>
      </trkpt>
      <trkpt lat="45.65899" lon="4.60503">
        <ele>619.45</ele>
        <time>2020-12-13T10:39:04.000Z</time>
      </trkpt>
      <trkpt lat="45.65908" lon="4.6053">
        <ele>619.63</ele>
        <time>2020-12-13T10:39:08.000Z</time>
      </trkpt>
      <trkpt lat="45.65916" lon="4.60558">
        <ele>620.06</ele>
        <time>2020-12-13T10:39:13.000Z</time>
      </trkpt>
      <trkpt lat="45.65921" lon="4.60584">
        <ele>620.69</ele>
        <time>2020-12-13T10:39:18.483Z</time>
      </trkpt>
      <trkpt lat="45.65931" lon="4.60607">
        <ele>621.15</ele>
        <time>2020-12-13T10:39:22.000Z</time>
      </trkpt>
      <trkpt lat="45.65969" lon="4.60713">
        <ele>624.07</ele>
        <time>2020-12-13T10:39:42.198Z</time>
      </trkpt>
      <trkpt lat="45.66027" lon="4.60838">
        <ele>626.52</ele>
        <time>2020-12-13T10:40:09.000Z</time>
      </trkpt>
      <trkpt lat="45.66078" lon="4.60924">
        <ele>627.07</ele>
        <time>2020-12-13T10:40:30.000Z</time>
      </trkpt>
      <trkpt lat="45.66094" lon="4.60949">
        <ele>628.43</ele>
        <time>2020-12-13T10:40:35.000Z</time>
      </trkpt>
      <trkpt lat="45.66114" lon="4.60988">
        <ele>625.16</ele>
        <time>2020-12-13T10:40:40.000Z</time>
      </trkpt>
      <trkpt lat="45.66126" lon="4.61035">
        <ele>623.19</ele>
        <time>2020-12-13T10:40:45.000Z</time>
      </trkpt>
      <trkpt lat="45.66135" lon="4.61069">
        <ele>622.32</ele>
        <time>2020-12-13T10:40:49.000Z</time>
      </trkpt>
      <trkpt lat="45.66141" lon="4.61108">
        <ele>621.68</ele>
        <time>2020-12-13T10:40:54.000Z</time>
      </trkpt>
      <trkpt lat="45.66145" lon="4.61143">
        <ele>621.26</ele>
        <time>2020-12-13T10:40:59.000Z</time>
      </trkpt>
      <trkpt lat="45.66173" lon="4.61187">
        <ele>618.14</ele>
        <time>2020-12-13T10:41:08.000Z</time>
      </trkpt>
      <trkpt lat="45.66195" lon="4.6121">
        <ele>615.8</ele>
        <time>2020-12-13T10:41:12.000Z</time>
      </trkpt>
      <trkpt lat="45.66215" lon="4.61232">
        <ele>613.99</ele>
        <time>2020-12-13T10:41:16.000Z</time>
      </trkpt>
      <trkpt lat="45.66237" lon="4.61264">
        <ele>610.63</ele>
        <time>2020-12-13T10:41:21.000Z</time>
      </trkpt>
      <trkpt lat="45.66258" lon="4.61295">
        <ele>607.8</ele>
        <time>2020-12-13T10:41:26.000Z</time>
      </trkpt>
      <trkpt lat="45.66278" lon="4.61309">
        <ele>605.34</ele>
        <time>2020-12-13T10:41:30.000Z</time>
      </trkpt>
      <trkpt lat="45.66303" lon="4.6132">
        <ele>602.84</ele>
        <time>2020-12-13T10:41:35.000Z</time>
      </trkpt>
      <trkpt lat="45.66329" lon="4.61327">
        <ele>599.75</ele>
        <time>2020-12-13T10:41:40.000Z</time>
      </trkpt>
      <trkpt lat="45.66348" lon="4.61333">
        <ele>597.55</ele>
        <time>2020-12-13T10:41:44.000Z</time>
      </trkpt>
      <trkpt lat="45.66365" lon="4.61342">
        <ele>595.84</ele>
        <time>2020-12-13T10:41:49.000Z</time>
      </trkpt>
      <trkpt lat="45.66382" lon="4.61356">
        <ele>593.11</ele>
        <time>2020-12-13T10:41:54.000Z</time>
      </trkpt>
      <trkpt lat="45.66399" lon="4.61391">
        <ele>588.78</ele>
        <time>2020-12-13T10:42:02.000Z</time>
      </trkpt>
      <trkpt lat="45.66413" lon="4.61433">
        <ele>583.98</ele>
        <time>2020-12-13T10:42:11.000Z</time>
      </trkpt>
      <trkpt lat="45.66429" lon="4.61466">
        <ele>580.65</ele>
        <time>2020-12-13T10:42:16.000Z</time>
      </trkpt>
      <trkpt lat="45.66441" lon="4.61487">
        <ele>577.52</ele>
        <time>2020-12-13T10:42:20.000Z</time>
      </trkpt>
      <trkpt lat="45.66451" lon="4.61534">
        <ele>572.08</ele>
        <time>2020-12-13T10:42:29.000Z</time>
      </trkpt>
      <trkpt lat="45.66464" lon="4.61579">
        <ele>566.17</ele>
        <time>2020-12-13T10:42:38.000Z</time>
      </trkpt>
      <trkpt lat="45.66471" lon="4.61605">
        <ele>563.31</ele>
        <time>2020-12-13T10:42:43.000Z</time>
      </trkpt>
      <trkpt lat="45.66477" lon="4.6164">
        <ele>558.78</ele>
        <time>2020-12-13T10:42:51.000Z</time>
      </trkpt>
      <trkpt lat="45.66494" lon="4.61669">
        <ele>554.09</ele>
        <time>2020-12-13T10:43:00.000Z</time>
      </trkpt>
      <trkpt lat="45.66504" lon="4.61719">
        <ele>549.18</ele>
        <time>2020-12-13T10:43:09.000Z</time>
      </trkpt>
      <trkpt lat="45.66497" lon="4.61747">
        <ele>547.52</ele>
        <time>2020-12-13T10:43:14.000Z</time>
      </trkpt>
      <trkpt lat="45.66494" lon="4.61779">
        <ele>546.24</ele>
        <time>2020-12-13T10:43:19.000Z</time>
      </trkpt>
      <trkpt lat="45.66492" lon="4.6181">
        <ele>545.07</ele>
        <time>2020-12-13T10:43:24.000Z</time>
      </trkpt>
      <trkpt lat="45.66494" lon="4.61837">
        <ele>543.92</ele>
        <time>2020-12-13T10:43:29.000Z</time>
      </trkpt>
      <trkpt lat="45.66501" lon="4.61876">
        <ele>541.6</ele>
        <time>2020-12-13T10:43:33.000Z</time>
      </trkpt>
      <trkpt lat="45.66504" lon="4.61902">
        <ele>539.64</ele>
        <time>2020-12-13T10:43:38.000Z</time>
      </trkpt>
      <trkpt lat="45.66521" lon="4.61954">
        <ele>536.26</ele>
        <time>2020-12-13T10:43:47.000Z</time>
      </trkpt>
      <trkpt lat="45.66536" lon="4.62006">
        <ele>533.6</ele>
        <time>2020-12-13T10:43:52.000Z</time>
      </trkpt>
      <trkpt lat="45.66548" lon="4.62046">
        <ele>531.71</ele>
        <time>2020-12-13T10:43:56.000Z</time>
      </trkpt>
      <trkpt lat="45.66559" lon="4.62087">
        <ele>531.09</ele>
        <time>2020-12-13T10:44:01.000Z</time>
      </trkpt>
      <trkpt lat="45.66566" lon="4.62122">
        <ele>530.77</ele>
        <time>2020-12-13T10:44:06.000Z</time>
      </trkpt>
      <trkpt lat="45.66574" lon="4.6215">
        <ele>530.21</ele>
        <time>2020-12-13T10:44:10.000Z</time>
      </trkpt>
      <trkpt lat="45.66583" lon="4.62183">
        <ele>529.62</ele>
        <time>2020-12-13T10:44:15.000Z</time>
      </trkpt>
      <trkpt lat="45.66593" lon="4.6221">
        <ele>528.95</ele>
        <time>2020-12-13T10:44:19.000Z</time>
      </trkpt>
      <trkpt lat="45.66605" lon="4.62244">
        <ele>528.2</ele>
        <time>2020-12-13T10:44:24.000Z</time>
      </trkpt>
      <trkpt lat="45.66619" lon="4.62271">
        <ele>527.5</ele>
        <time>2020-12-13T10:44:29.000Z</time>
      </trkpt>
      <trkpt lat="45.66634" lon="4.62318">
        <ele>525.49</ele>
        <time>2020-12-13T10:44:38.000Z</time>
      </trkpt>
      <trkpt lat="45.66655" lon="4.62339">
        <ele>523.46</ele>
        <time>2020-12-13T10:44:46.000Z</time>
      </trkpt>
      <trkpt lat="45.66682" lon="4.62358">
        <ele>519.48</ele>
        <time>2020-12-13T10:44:56.000Z</time>
      </trkpt>
      <trkpt lat="45.66702" lon="4.62378">
        <ele>517.63</ele>
        <time>2020-12-13T10:45:01.000Z</time>
      </trkpt>
      <trkpt lat="45.66722" lon="4.62461">
        <ele>515.06</ele>
        <time>2020-12-13T10:45:16.145Z</time>
      </trkpt>
      <trkpt lat="45.66738" lon="4.62511">
        <ele>515.88</ele>
        <time>2020-12-13T10:45:25.419Z</time>
      </trkpt>
      <trkpt lat="45.66744" lon="4.62604">
        <ele>513.88</ele>
        <time>2020-12-13T10:45:40.218Z</time>
      </trkpt>
      <trkpt lat="45.66759" lon="4.62632">
        <ele>511.1</ele>
        <time>2020-12-13T10:45:48.847Z</time>
      </trkpt>
      <trkpt lat="45.66754" lon="4.62696">
        <ele>504.38</ele>
        <time>2020-12-13T10:46:03.634Z</time>
      </trkpt>
      <trkpt lat="45.66753" lon="4.62742">
        <ele>502.02</ele>
        <time>2020-12-13T10:46:11.000Z</time>
      </trkpt>
      <trkpt lat="45.66752" lon="4.62771">
        <ele>499.86</ele>
        <time>2020-12-13T10:46:16.000Z</time>
      </trkpt>
      <trkpt lat="45.66746" lon="4.62814">
        <ele>496.89</ele>
        <time>2020-12-13T10:46:25.000Z</time>
      </trkpt>
      <trkpt lat="45.66756" lon="4.62845">
        <ele>492.3</ele>
        <time>2020-12-13T10:46:34.000Z</time>
      </trkpt>
      <trkpt lat="45.66772" lon="4.62873">
        <ele>488.42</ele>
        <time>2020-12-13T10:46:43.000Z</time>
      </trkpt>
      <trkpt lat="45.66791" lon="4.62884">
        <ele>486.16</ele>
        <time>2020-12-13T10:46:52.000Z</time>
      </trkpt>
      <trkpt lat="45.6681" lon="4.62904">
        <ele>482.55</ele>
        <time>2020-12-13T10:47:02.000Z</time>
      </trkpt>
      <trkpt lat="45.6683" lon="4.62921">
        <ele>478.62</ele>
        <time>2020-12-13T10:47:25.000Z</time>
      </trkpt>
      <trkpt lat="45.66845" lon="4.62935">
        <ele>473.85</ele>
        <time>2020-12-13T10:47:51.644Z</time>
      </trkpt>
      <trkpt lat="45.66863" lon="4.62943">
        <ele>470.25</ele>
        <time>2020-12-13T10:48:13.171Z</time>
      </trkpt>
      <trkpt lat="45.66875" lon="4.62964">
        <ele>466.18</ele>
        <time>2020-12-13T10:48:34.103Z</time>
      </trkpt>
      <trkpt lat="45.669" lon="4.63047">
        <ele>457.03</ele>
        <time>2020-12-13T10:48:56.775Z</time>
      </trkpt>
      <trkpt lat="45.66931" lon="4.63102">
        <ele>452.28</ele>
        <time>2020-12-13T10:49:07.000Z</time>
      </trkpt>
      <trkpt lat="45.66948" lon="4.63146">
        <ele>452.6</ele>
        <time>2020-12-13T10:49:12.000Z</time>
      </trkpt>
      <trkpt lat="45.66965" lon="4.63178">
        <ele>449.56</ele>
        <time>2020-12-13T10:49:16.000Z</time>
      </trkpt>
      <trkpt lat="45.66988" lon="4.63215">
        <ele>447.77</ele>
        <time>2020-12-13T10:49:21.000Z</time>
      </trkpt>
      <trkpt lat="45.67011" lon="4.63245">
        <ele>446.43</ele>
        <time>2020-12-13T10:49:26.000Z</time>
      </trkpt>
      <trkpt lat="45.67024" lon="4.63264">
        <ele>445.98</ele>
        <time>2020-12-13T10:49:30.000Z</time>
      </trkpt>
      <trkpt lat="45.67037" lon="4.63299">
        <ele>444.19</ele>
        <time>2020-12-13T10:49:35.000Z</time>
      </trkpt>
      <trkpt lat="45.67045" lon="4.63332">
        <ele>442.23</ele>
        <time>2020-12-13T10:49:39.000Z</time>
      </trkpt>
      <trkpt lat="45.67055" lon="4.63366">
        <ele>440.55</ele>
        <time>2020-12-13T10:49:43.000Z</time>
      </trkpt>
      <trkpt lat="45.67067" lon="4.63404">
        <ele>438.92</ele>
        <time>2020-12-13T10:49:48.000Z</time>
      </trkpt>
      <trkpt lat="45.67078" lon="4.63438">
        <ele>437.06</ele>
        <time>2020-12-13T10:49:53.000Z</time>
      </trkpt>
      <trkpt lat="45.67091" lon="4.63465">
        <ele>433.85</ele>
        <time>2020-12-13T10:49:57.000Z</time>
      </trkpt>
      <trkpt lat="45.67107" lon="4.63501">
        <ele>431.11</ele>
        <time>2020-12-13T10:50:02.000Z</time>
      </trkpt>
      <trkpt lat="45.67118" lon="4.63524">
        <ele>428.75</ele>
        <time>2020-12-13T10:50:06.000Z</time>
      </trkpt>
      <trkpt lat="45.67135" lon="4.63555">
        <ele>426.03</ele>
        <time>2020-12-13T10:50:11.000Z</time>
      </trkpt>
      <trkpt lat="45.6715" lon="4.63576">
        <ele>423.66</ele>
        <time>2020-12-13T10:50:15.000Z</time>
      </trkpt>
      <trkpt lat="45.67163" lon="4.63597">
        <ele>420.49</ele>
        <time>2020-12-13T10:50:19.000Z</time>
      </trkpt>
      <trkpt lat="45.67183" lon="4.63615">
        <ele>416.9</ele>
        <time>2020-12-13T10:50:24.000Z</time>
      </trkpt>
      <trkpt lat="45.67216" lon="4.63631">
        <ele>411.14</ele>
        <time>2020-12-13T10:50:32.000Z</time>
      </trkpt>
      <trkpt lat="45.67237" lon="4.63648">
        <ele>407.25</ele>
        <time>2020-12-13T10:50:37.000Z</time>
      </trkpt>
      <trkpt lat="45.67257" lon="4.63665">
        <ele>403.03</ele>
        <time>2020-12-13T10:50:42.000Z</time>
      </trkpt>
      <trkpt lat="45.6728" lon="4.63691">
        <ele>398.19</ele>
        <time>2020-12-13T10:50:50.000Z</time>
      </trkpt>
      <trkpt lat="45.67296" lon="4.6371">
        <ele>394.8</ele>
        <time>2020-12-13T10:50:55.000Z</time>
      </trkpt>
      <trkpt lat="45.67316" lon="4.63732">
        <ele>390.75</ele>
        <time>2020-12-13T10:51:00.000Z</time>
      </trkpt>
      <trkpt lat="45.67338" lon="4.63756">
        <ele>385.96</ele>
        <time>2020-12-13T10:51:05.000Z</time>
      </trkpt>
      <trkpt lat="45.67355" lon="4.63775">
        <ele>382.03</ele>
        <time>2020-12-13T10:51:09.000Z</time>
      </trkpt>
      <trkpt lat="45.67376" lon="4.63799">
        <ele>378.08</ele>
        <time>2020-12-13T10:51:14.000Z</time>
      </trkpt>
      <trkpt lat="45.67399" lon="4.63819">
        <ele>375.03</ele>
        <time>2020-12-13T10:51:19.000Z</time>
      </trkpt>
      <trkpt lat="45.67423" lon="4.63834">
        <ele>372.24</ele>
        <time>2020-12-13T10:51:24.000Z</time>
      </trkpt>
      <trkpt lat="45.6745" lon="4.63858">
        <ele>369.56</ele>
        <time>2020-12-13T10:51:29.000Z</time>
      </trkpt>
      <trkpt lat="45.67476" lon="4.63885">
        <ele>367.79</ele>
        <time>2020-12-13T10:51:34.000Z</time>
      </trkpt>
      <trkpt lat="45.67507" lon="4.63918">
        <ele>364.66</ele>
        <time>2020-12-13T10:51:39.000Z</time>
      </trkpt>
      <trkpt lat="45.67536" lon="4.63956">
        <ele>362.1</ele>
        <time>2020-12-13T10:51:44.000Z</time>
      </trkpt>
      <trkpt lat="45.67557" lon="4.63996">
        <ele>358.48</ele>
        <time>2020-12-13T10:51:52.000Z</time>
      </trkpt>
      <trkpt lat="45.67567" lon="4.64031">
        <ele>356.46</ele>
        <time>2020-12-13T10:51:56.000Z</time>
      </trkpt>
      <trkpt lat="45.67578" lon="4.64063">
        <ele>353.44</ele>
        <time>2020-12-13T10:52:00.000Z</time>
      </trkpt>
      <trkpt lat="45.67593" lon="4.6411">
        <ele>348.54</ele>
        <time>2020-12-13T10:52:04.000Z</time>
      </trkpt>
      <trkpt lat="45.67602" lon="4.64146">
        <ele>345.68</ele>
        <time>2020-12-13T10:52:08.000Z</time>
      </trkpt>
      <trkpt lat="45.67595" lon="4.64187">
        <ele>344.19</ele>
        <time>2020-12-13T10:52:13.000Z</time>
      </trkpt>
      <trkpt lat="45.67586" lon="4.64236">
        <ele>344.65</ele>
        <time>2020-12-13T10:52:22.000Z</time>
      </trkpt>
      <trkpt lat="45.67586" lon="4.64262">
        <ele>344.87</ele>
        <time>2020-12-13T10:52:27.000Z</time>
      </trkpt>
      <trkpt lat="45.6761" lon="4.64269">
        <ele>344.95</ele>
        <time>2020-12-13T10:52:40.000Z</time>
      </trkpt>
      <trkpt lat="45.67626" lon="4.6428">
        <ele>345.42</ele>
        <time>2020-12-13T10:53:41.000Z</time>
      </trkpt>
      <trkpt lat="45.67641" lon="4.64297">
        <ele>345.27</ele>
        <time>2020-12-13T10:53:49.000Z</time>
      </trkpt>
      <trkpt lat="45.67656" lon="4.64325">
        <ele>344.33</ele>
        <time>2020-12-13T10:53:54.000Z</time>
      </trkpt>
      <trkpt lat="45.6767" lon="4.64353">
        <ele>343.28</ele>
        <time>2020-12-13T10:53:59.000Z</time>
      </trkpt>
      <trkpt lat="45.67678" lon="4.64385">
        <ele>342.06</ele>
        <time>2020-12-13T10:54:03.000Z</time>
      </trkpt>
      <trkpt lat="45.67687" lon="4.64424">
        <ele>341.14</ele>
        <time>2020-12-13T10:54:08.000Z</time>
      </trkpt>
      <trkpt lat="45.67706" lon="4.64453">
        <ele>339.94</ele>
        <time>2020-12-13T10:54:16.000Z</time>
      </trkpt>
      <trkpt lat="45.67716" lon="4.64487">
        <ele>338.42</ele>
        <time>2020-12-13T10:54:25.203Z</time>
      </trkpt>
      <trkpt lat="45.67731" lon="4.64533">
        <ele>335.22</ele>
        <time>2020-12-13T10:54:33.000Z</time>
      </trkpt>
      <trkpt lat="45.67741" lon="4.64563">
        <ele>333.34</ele>
        <time>2020-12-13T10:54:37.000Z</time>
      </trkpt>
      <trkpt lat="45.67751" lon="4.64599">
        <ele>330.72</ele>
        <time>2020-12-13T10:54:41.000Z</time>
      </trkpt>
      <trkpt lat="45.67761" lon="4.64635">
        <ele>327.77</ele>
        <time>2020-12-13T10:54:45.000Z</time>
      </trkpt>
      <trkpt lat="45.67774" lon="4.6468">
        <ele>324.71</ele>
        <time>2020-12-13T10:54:50.000Z</time>
      </trkpt>
      <trkpt lat="45.67781" lon="4.6471">
        <ele>322.67</ele>
        <time>2020-12-13T10:54:54.000Z</time>
      </trkpt>
      <trkpt lat="45.67787" lon="4.64763">
        <ele>319.54</ele>
        <time>2020-12-13T10:55:02.000Z</time>
      </trkpt>
      <trkpt lat="45.67791" lon="4.64789">
        <ele>317.46</ele>
        <time>2020-12-13T10:55:06.000Z</time>
      </trkpt>
      <trkpt lat="45.67807" lon="4.64825">
        <ele>313.7</ele>
        <time>2020-12-13T10:55:11.000Z</time>
      </trkpt>
      <trkpt lat="45.67816" lon="4.64854">
        <ele>309.47</ele>
        <time>2020-12-13T10:55:21.000Z</time>
      </trkpt>
      <trkpt lat="45.67837" lon="4.64872">
        <ele>308.59</ele>
        <time>2020-12-13T10:55:26.000Z</time>
      </trkpt>
      <trkpt lat="45.67854" lon="4.64887">
        <ele>308.04</ele>
        <time>2020-12-13T10:55:30.000Z</time>
      </trkpt>
      <trkpt lat="45.67869" lon="4.64912">
        <ele>307.21</ele>
        <time>2020-12-13T10:55:35.000Z</time>
      </trkpt>
      <trkpt lat="45.67867" lon="4.64945">
        <ele>307.39</ele>
        <time>2020-12-13T10:55:44.000Z</time>
      </trkpt>
    </trkseg>
  </trk>
</gpx>